<?xml version='1.0' encoding='UTF-8'?><gpx version="1.1" creator="JPX - https://github.com/jenetics/jpx" xmlns="http://www.topografix.com/GPX/1/1"><trk><trkseg><trkpt lat="43.460604877817225" lon="10.562504389015462"><ele>207.0</ele><time>2026-04-19T09:02:17.998Z</time></trkpt><trkpt lat="43.46070274976165" lon="10.562454954184037"><ele>207.0</ele><time>2026-04-19T09:02:19.998Z</time></trkpt><trkpt lat="43.46081557616058" lon="10.562383747158142"><ele>207.0</ele><time>2026-04-19T09:02:21.997Z</time></trkpt><trkpt lat="43.460887304444256" lon="10.562341063105356"><ele>207.0</ele><time>2026-04-19T09:02:22.997Z</time></trkpt><trkpt lat="43.46096978962688" lon="10.562292994276122"><ele>207.0</ele><time>2026-04-19T09:02:23.999Z</time></trkpt><trkpt lat="43.46105481998394" lon="10.562233856195279"><ele>207.00000000000003</ele><time>2026-04-19T09:02:24.999Z</time></trkpt><trkpt lat="43.46113426886434" lon="10.562176420772802"><ele>207.0</ele><time>2026-04-19T09:02:25.999Z</time></trkpt><trkpt lat="43.46119882457754" lon="10.562135446041395"><ele>207.0</ele><time>2026-04-19T09:02:26.999Z</time></trkpt><trkpt lat="43.461266279764025" lon="10.562106344966155"><ele>207.0</ele><time>2026-04-19T09:02:27.999Z</time></trkpt><trkpt lat="43.461330368503184" lon="10.562075235252971"><ele>207.0</ele><time>2026-04-19T09:02:28.999Z</time></trkpt><trkpt lat="43.461393291365674" lon="10.562079639612422"><ele>207.00000000000003</ele><time>2026-04-19T09:02:29.999Z</time></trkpt><trkpt lat="43.461456506518225" lon="10.562082558668923"><ele>207.0</ele><time>2026-04-19T09:02:31Z</time></trkpt><trkpt lat="43.4615178666775" lon="10.562120610349513"><ele>207.66666666666666</ele><time>2026-04-19T09:02:32Z</time></trkpt><trkpt lat="43.46157888713322" lon="10.562184273342458"><ele>208.33333333333331</ele><time>2026-04-19T09:02:33Z</time></trkpt><trkpt lat="43.46164780744451" lon="10.562218135767381"><ele>209.0</ele><time>2026-04-19T09:02:34Z</time></trkpt><trkpt lat="43.461710386461654" lon="10.562242500754671"><ele>209.66666666666666</ele><time>2026-04-19T09:02:35Z</time></trkpt><trkpt lat="43.461774922393005" lon="10.562101853459954"><ele>210.33333333333331</ele><time>2026-04-19T09:02:37Z</time></trkpt><trkpt lat="43.46177509854708" lon="10.5619987713479"><ele>211.0</ele><time>2026-04-19T09:02:38Z</time></trkpt><trkpt lat="43.46175766999739" lon="10.561869049219336"><ele>209.20000000000002</ele><time>2026-04-19T09:02:39Z</time></trkpt><trkpt lat="43.461722725708675" lon="10.561736863059396"><ele>207.4</ele><time>2026-04-19T09:02:40Z</time></trkpt><trkpt lat="43.46168972648915" lon="10.561602021018874"><ele>205.6</ele><time>2026-04-19T09:02:41Z</time></trkpt><trkpt lat="43.46165545951071" lon="10.561477425989557"><ele>203.8</ele><time>2026-04-19T09:02:42Z</time></trkpt><trkpt lat="43.461625718668785" lon="10.56136275038712"><ele>202.0</ele><time>2026-04-19T09:02:43Z</time></trkpt><trkpt lat="43.46160346280179" lon="10.561253294464201"><ele>200.33333333333331</ele><time>2026-04-19T09:02:44Z</time></trkpt><trkpt lat="43.461599637547195" lon="10.561143166533558"><ele>198.66666666666666</ele><time>2026-04-19T09:02:45Z</time></trkpt><trkpt lat="43.46160612989814" lon="10.561035765363918"><ele>197.0</ele><time>2026-04-19T09:02:46Z</time></trkpt><trkpt lat="43.46163660350888" lon="10.560931798439022"><ele>195.33333333333331</ele><time>2026-04-19T09:02:47Z</time></trkpt><trkpt lat="43.46167414657334" lon="10.560837006622648"><ele>193.66666666666666</ele><time>2026-04-19T09:02:48Z</time></trkpt><trkpt lat="43.461723609514365" lon="10.56074975219202"><ele>192.0</ele><time>2026-04-19T09:02:49Z</time></trkpt><trkpt lat="43.46178418827299" lon="10.560682896730468"><ele>192.0</ele><time>2026-04-19T09:02:50Z</time></trkpt><trkpt lat="43.461858018913794" lon="10.56062457577493"><ele>192.0</ele><time>2026-04-19T09:02:51Z</time></trkpt><trkpt lat="43.46194810214455" lon="10.560552550946948"><ele>192.0</ele><time>2026-04-19T09:02:51.999Z</time></trkpt><trkpt lat="43.46204474375259" lon="10.56049265348255"><ele>192.0</ele><time>2026-04-19T09:02:52.999Z</time></trkpt><trkpt lat="43.46214285487035" lon="10.56041579866396"><ele>192.0</ele><time>2026-04-19T09:02:53.999Z</time></trkpt><trkpt lat="43.46222865297016" lon="10.560301302137214"><ele>193.5</ele><time>2026-04-19T09:02:54.999Z</time></trkpt><trkpt lat="43.46229782916256" lon="10.560140502714836"><ele>195.0</ele><time>2026-04-19T09:02:55.999Z</time></trkpt><trkpt lat="43.46236314505393" lon="10.559985922064376"><ele>196.5</ele><time>2026-04-19T09:02:56.999Z</time></trkpt><trkpt lat="43.46243273532651" lon="10.559839792788116"><ele>198.0</ele><time>2026-04-19T09:02:57.999Z</time></trkpt><trkpt lat="43.46250984213412" lon="10.559697316342026"><ele>198.0</ele><time>2026-04-19T09:02:58.999Z</time></trkpt><trkpt lat="43.46258391528343" lon="10.559553231938107"><ele>198.0</ele><time>2026-04-19T09:02:59.999Z</time></trkpt><trkpt lat="43.462662644262906" lon="10.559410246297029"><ele>198.0</ele><time>2026-04-19T09:03:00.999Z</time></trkpt><trkpt lat="43.46275704499397" lon="10.559295246534512"><ele>198.0</ele><time>2026-04-19T09:03:01.999Z</time></trkpt><trkpt lat="43.46286459358837" lon="10.559193477639731"><ele>198.25</ele><time>2026-04-19T09:03:02.999Z</time></trkpt><trkpt lat="43.46297106005466" lon="10.5590899205904"><ele>198.5</ele><time>2026-04-19T09:03:03.999Z</time></trkpt><trkpt lat="43.46306202560773" lon="10.558976499721147"><ele>198.75</ele><time>2026-04-19T09:03:04.999Z</time></trkpt><trkpt lat="43.463130747180244" lon="10.558835855862466"><ele>199.0</ele><time>2026-04-19T09:03:05.999Z</time></trkpt><trkpt lat="43.46317796584379" lon="10.558666750505308"><ele>195.2</ele><time>2026-04-19T09:03:06.999Z</time></trkpt><trkpt lat="43.46319551893099" lon="10.558487494966256"><ele>191.39999999999998</ele><time>2026-04-19T09:03:07.999Z</time></trkpt><trkpt lat="43.46321184923685" lon="10.558334225513295"><ele>187.6</ele><time>2026-04-19T09:03:08.999Z</time></trkpt><trkpt lat="43.46324585860018" lon="10.558213887194638"><ele>183.8</ele><time>2026-04-19T09:03:09.999Z</time></trkpt><trkpt lat="43.463308798863444" lon="10.558121960649661"><ele>180.0</ele><time>2026-04-19T09:03:10.999Z</time></trkpt><trkpt lat="43.463404004736674" lon="10.55805733783001"><ele>180.0</ele><time>2026-04-19T09:03:11.999Z</time></trkpt><trkpt lat="43.46351764752605" lon="10.558035203341133"><ele>180.0</ele><time>2026-04-19T09:03:12.999Z</time></trkpt><trkpt lat="43.46363445721796" lon="10.5580613115043"><ele>180.0</ele><time>2026-04-19T09:03:13.999Z</time></trkpt><trkpt lat="43.46374608572558" lon="10.558111992298144"><ele>180.0</ele><time>2026-04-19T09:03:14.999Z</time></trkpt><trkpt lat="43.463865611941046" lon="10.558161978662218"><ele>180.0</ele><time>2026-04-19T09:03:15.999Z</time></trkpt><trkpt lat="43.46399387712723" lon="10.55822342100586"><ele>180.0</ele><time>2026-04-19T09:03:16.999Z</time></trkpt><trkpt lat="43.46412087490348" lon="10.558301859707315"><ele>180.0</ele><time>2026-04-19T09:03:17.999Z</time></trkpt><trkpt lat="43.464238706607524" lon="10.558408914103852"><ele>180.0</ele><time>2026-04-19T09:03:18.999Z</time></trkpt><trkpt lat="43.46433598542345" lon="10.55853374803256"><ele>180.0</ele><time>2026-04-19T09:03:19.999Z</time></trkpt><trkpt lat="43.464410602727604" lon="10.558651616433094"><ele>180.0</ele><time>2026-04-19T09:03:20.999Z</time></trkpt><trkpt lat="43.464499145266814" lon="10.558715757481812"><ele>180.0</ele><time>2026-04-19T09:03:21.999Z</time></trkpt><trkpt lat="43.46461264097119" lon="10.558707794363857"><ele>180.0</ele><time>2026-04-19T09:03:22.999Z</time></trkpt><trkpt lat="43.464730619083355" lon="10.558602732491877"><ele>178.25</ele><time>2026-04-19T09:03:23.999Z</time></trkpt><trkpt lat="43.46486425639432" lon="10.558541988977051"><ele>176.5</ele><time>2026-04-19T09:03:24.999Z</time></trkpt><trkpt lat="43.46500869755576" lon="10.558449241038106"><ele>174.75</ele><time>2026-04-19T09:03:25.999Z</time></trkpt><trkpt lat="43.46512251325537" lon="10.558399853336175"><ele>173.0</ele><time>2026-04-19T09:03:26.999Z</time></trkpt><trkpt lat="43.465221897933645" lon="10.558383884660774"><ele>173.0</ele><time>2026-04-19T09:03:27.999Z</time></trkpt><trkpt lat="43.46531267709531" lon="10.558408306882846"><ele>173.0</ele><time>2026-04-19T09:03:28.999Z</time></trkpt><trkpt lat="43.46539485507991" lon="10.558491462807241"><ele>173.0</ele><time>2026-04-19T09:03:29.999Z</time></trkpt><trkpt lat="43.46545887581125" lon="10.558611833626939"><ele>173.0</ele><time>2026-04-19T09:03:30.999Z</time></trkpt><trkpt lat="43.46551052102678" lon="10.558765684764108"><ele>173.0</ele><time>2026-04-19T09:03:31.999Z</time></trkpt><trkpt lat="43.46555751539039" lon="10.55895277633991"><ele>172.66666666666666</ele><time>2026-04-19T09:03:32.999Z</time></trkpt><trkpt lat="43.46560905081689" lon="10.559148523625016"><ele>172.33333333333334</ele><time>2026-04-19T09:03:33.999Z</time></trkpt><trkpt lat="43.46568162138177" lon="10.559321521115859"><ele>172.0</ele><time>2026-04-19T09:03:34.999Z</time></trkpt><trkpt lat="43.46579635332277" lon="10.559485942709118"><ele>178.0</ele><time>2026-04-19T09:03:35.999Z</time></trkpt><trkpt lat="43.46590745640369" lon="10.559632570406906"><ele>184.0</ele><time>2026-04-19T09:03:36.999Z</time></trkpt><trkpt lat="43.4660108998203" lon="10.559765373090803"><ele>190.0</ele><time>2026-04-19T09:03:37.999Z</time></trkpt><trkpt lat="43.46612149053481" lon="10.559875053506268"><ele>196.0</ele><time>2026-04-19T09:03:38.999Z</time></trkpt><trkpt lat="43.466260226936996" lon="10.559934853013866"><ele>190.0</ele><time>2026-04-19T09:03:39.999Z</time></trkpt><trkpt lat="43.46640030661941" lon="10.560029730876481"><ele>184.0</ele><time>2026-04-19T09:03:40.999Z</time></trkpt><trkpt lat="43.46653308957376" lon="10.560090146676238"><ele>178.0</ele><time>2026-04-19T09:03:41.999Z</time></trkpt><trkpt lat="43.46663332500679" lon="10.560160993540176"><ele>172.0</ele><time>2026-04-19T09:03:42.999Z</time></trkpt><trkpt lat="43.46672440457306" lon="10.560211588211168"><ele>172.0</ele><time>2026-04-19T09:03:43.999Z</time></trkpt><trkpt lat="43.46679446770139" lon="10.56022829242098"><ele>172.0</ele><time>2026-04-19T09:03:44.999Z</time></trkpt><trkpt lat="43.46686094020537" lon="10.560192676729628"><ele>172.0</ele><time>2026-04-19T09:03:45.999Z</time></trkpt><trkpt lat="43.466903848758825" lon="10.560071534775082"><ele>172.0</ele><time>2026-04-19T09:03:46.999Z</time></trkpt><trkpt lat="43.46694673757694" lon="10.559937856090523"><ele>172.0</ele><time>2026-04-19T09:03:47.999Z</time></trkpt><trkpt lat="43.466964044531316" lon="10.559831219625758"><ele>172.0</ele><time>2026-04-19T09:03:48.999Z</time></trkpt><trkpt lat="43.46692622850822" lon="10.55972024548058"><ele>172.0</ele><time>2026-04-19T09:03:49.998Z</time></trkpt><trkpt lat="43.46682142123684" lon="10.559638044032964"><ele>172.0</ele><time>2026-04-19T09:03:50.998Z</time></trkpt><trkpt lat="43.46668191009867" lon="10.559523866911743"><ele>172.0</ele><time>2026-04-19T09:03:51.998Z</time></trkpt><trkpt lat="43.466565829357116" lon="10.559402509156834"><ele>172.0</ele><time>2026-04-19T09:03:52.998Z</time></trkpt><trkpt lat="43.46646800045913" lon="10.55930970914274"><ele>172.0</ele><time>2026-04-19T09:03:53.998Z</time></trkpt><trkpt lat="43.466390505236205" lon="10.559213553365582"><ele>172.0</ele><time>2026-04-19T09:03:54.998Z</time></trkpt><trkpt lat="43.46631841087939" lon="10.559116482736133"><ele>172.0</ele><time>2026-04-19T09:03:55.998Z</time></trkpt><trkpt lat="43.466301714754344" lon="10.558971620360062"><ele>172.0</ele><time>2026-04-19T09:03:56.998Z</time></trkpt><trkpt lat="43.46626195186276" lon="10.558817012406966"><ele>172.0</ele><time>2026-04-19T09:03:57.998Z</time></trkpt><trkpt lat="43.466276450970014" lon="10.558644359136958"><ele>172.0</ele><time>2026-04-19T09:03:58.998Z</time></trkpt><trkpt lat="43.46627078458657" lon="10.558464750706493"><ele>172.0</ele><time>2026-04-19T09:03:59.998Z</time></trkpt><trkpt lat="43.466279901692495" lon="10.558310866028181"><ele>172.0</ele><time>2026-04-19T09:04:00.998Z</time></trkpt><trkpt lat="43.46629153694974" lon="10.558173963822576"><ele>172.0</ele><time>2026-04-19T09:04:01.998Z</time></trkpt><trkpt lat="43.46631363457854" lon="10.558055608814058"><ele>172.0</ele><time>2026-04-19T09:04:02.998Z</time></trkpt><trkpt lat="43.46636238991844" lon="10.557957754907424"><ele>172.0</ele><time>2026-04-19T09:04:03.998Z</time></trkpt><trkpt lat="43.46640821222261" lon="10.557875853449676"><ele>172.0</ele><time>2026-04-19T09:04:04.998Z</time></trkpt><trkpt lat="43.46645872868977" lon="10.557808672064734"><ele>172.0</ele><time>2026-04-19T09:04:05.998Z</time></trkpt><trkpt lat="43.46652820054853" lon="10.557777426303835"><ele>172.0</ele><time>2026-04-19T09:04:06.998Z</time></trkpt><trkpt lat="43.46660956576968" lon="10.557759839035825"><ele>172.0</ele><time>2026-04-19T09:04:07.998Z</time></trkpt><trkpt lat="43.466702860104675" lon="10.557768243053264"><ele>172.0</ele><time>2026-04-19T09:04:08.998Z</time></trkpt><trkpt lat="43.466804615707446" lon="10.557763954167505"><ele>171.0</ele><time>2026-04-19T09:04:09.998Z</time></trkpt><trkpt lat="43.46689525107549" lon="10.557697431454082"><ele>170.0</ele><time>2026-04-19T09:04:10.998Z</time></trkpt><trkpt lat="43.46698908415682" lon="10.557624075014251"><ele>169.0</ele><time>2026-04-19T09:04:11.998Z</time></trkpt><trkpt lat="43.46707641191345" lon="10.557500697530982"><ele>168.0</ele><time>2026-04-19T09:04:12.998Z</time></trkpt><trkpt lat="43.467164616174095" lon="10.55738124952974"><ele>168.0</ele><time>2026-04-19T09:04:13.998Z</time></trkpt><trkpt lat="43.46723888602428" lon="10.55724257086302"><ele>168.0</ele><time>2026-04-19T09:04:14.998Z</time></trkpt><trkpt lat="43.46731612079165" lon="10.557111764688827"><ele>168.0</ele><time>2026-04-19T09:04:15.998Z</time></trkpt><trkpt lat="43.46738319781154" lon="10.556998581065534"><ele>168.0</ele><time>2026-04-19T09:04:16.998Z</time></trkpt><trkpt lat="43.467441349909194" lon="10.556892860909995"><ele>166.33333333333334</ele><time>2026-04-19T09:04:17.998Z</time></trkpt><trkpt lat="43.46749865684704" lon="10.556794342555145"><ele>164.66666666666666</ele><time>2026-04-19T09:04:18.998Z</time></trkpt><trkpt lat="43.467558685331866" lon="10.556693927757305"><ele>163.0</ele><time>2026-04-19T09:04:19.998Z</time></trkpt><trkpt lat="43.46761505767436" lon="10.556607986972002"><ele>161.33333333333331</ele><time>2026-04-19T09:04:20.998Z</time></trkpt><trkpt lat="43.46767936610748" lon="10.556554833053331"><ele>159.66666666666666</ele><time>2026-04-19T09:04:21.998Z</time></trkpt><trkpt lat="43.46775734394082" lon="10.556548616187083"><ele>158.0</ele><time>2026-04-19T09:04:22.998Z</time></trkpt><trkpt lat="43.46782927943127" lon="10.556593239750619"><ele>158.0</ele><time>2026-04-19T09:04:23.998Z</time></trkpt><trkpt lat="43.467893511145675" lon="10.556665472884013"><ele>158.0</ele><time>2026-04-19T09:04:24.998Z</time></trkpt><trkpt lat="43.46794603383205" lon="10.556771019144941"><ele>158.0</ele><time>2026-04-19T09:04:25.998Z</time></trkpt><trkpt lat="43.46799345653112" lon="10.556897635436972"><ele>158.0</ele><time>2026-04-19T09:04:26.998Z</time></trkpt><trkpt lat="43.46804681597834" lon="10.557029404346748"><ele>158.0</ele><time>2026-04-19T09:04:27.998Z</time></trkpt><trkpt lat="43.46810909905991" lon="10.557166029614823"><ele>160.60000000000002</ele><time>2026-04-19T09:04:28.998Z</time></trkpt><trkpt lat="43.46819163540671" lon="10.5572798916488"><ele>163.20000000000002</ele><time>2026-04-19T09:04:29.999Z</time></trkpt><trkpt lat="43.4682856192088" lon="10.557351720107171"><ele>165.8</ele><time>2026-04-19T09:04:30.999Z</time></trkpt><trkpt lat="43.46839196099945" lon="10.55739706971219"><ele>168.4</ele><time>2026-04-19T09:04:31.999Z</time></trkpt><trkpt lat="43.46849959523356" lon="10.55744084445703"><ele>171.0</ele><time>2026-04-19T09:04:32.999Z</time></trkpt><trkpt lat="43.46861043106292" lon="10.557443153337701"><ele>171.0</ele><time>2026-04-19T09:04:33.999Z</time></trkpt><trkpt lat="43.468708225368964" lon="10.557355060803763"><ele>171.0</ele><time>2026-04-19T09:04:34.999Z</time></trkpt><trkpt lat="43.46880554850508" lon="10.557299565049963"><ele>171.0</ele><time>2026-04-19T09:04:35.999Z</time></trkpt><trkpt lat="43.46888568898621" lon="10.55724086633212"><ele>171.0</ele><time>2026-04-19T09:04:36.999Z</time></trkpt><trkpt lat="43.468972274004216" lon="10.557241760984438"><ele>171.0</ele><time>2026-04-19T09:04:37.999Z</time></trkpt><trkpt lat="43.46907120638707" lon="10.55729599077406"><ele>170.8</ele><time>2026-04-19T09:04:39Z</time></trkpt><trkpt lat="43.46916091040027" lon="10.557378853576742"><ele>170.60000000000002</ele><time>2026-04-19T09:04:40Z</time></trkpt><trkpt lat="43.469256080000925" lon="10.55745779287502"><ele>170.4</ele><time>2026-04-19T09:04:41Z</time></trkpt><trkpt lat="43.469350396783675" lon="10.557535769683325"><ele>170.2</ele><time>2026-04-19T09:04:42Z</time></trkpt><trkpt lat="43.46945515155699" lon="10.557614546019607"><ele>170.0</ele><time>2026-04-19T09:04:43Z</time></trkpt><trkpt lat="43.46955002697029" lon="10.557696459070781"><ele>168.25</ele><time>2026-04-19T09:04:44Z</time></trkpt><trkpt lat="43.4696380302599" lon="10.557790935911646"><ele>166.5</ele><time>2026-04-19T09:04:45Z</time></trkpt><trkpt lat="43.46969948287743" lon="10.557916876661896"><ele>164.75</ele><time>2026-04-19T09:04:46Z</time></trkpt><trkpt lat="43.469763040202906" lon="10.558053313237448"><ele>163.0</ele><time>2026-04-19T09:04:47Z</time></trkpt><trkpt lat="43.46982389768762" lon="10.558190778056899"><ele>166.5</ele><time>2026-04-19T09:04:48Z</time></trkpt><trkpt lat="43.46987596422858" lon="10.558339810180652"><ele>170.0</ele><time>2026-04-19T09:04:49Z</time></trkpt><trkpt lat="43.46991925300352" lon="10.558503871174493"><ele>173.5</ele><time>2026-04-19T09:04:50Z</time></trkpt><trkpt lat="43.469965408860546" lon="10.558680079974753"><ele>177.0</ele><time>2026-04-19T09:04:51Z</time></trkpt><trkpt lat="43.470003586574464" lon="10.558845419601095"><ele>179.5</ele><time>2026-04-19T09:04:52Z</time></trkpt><trkpt lat="43.47003573950387" lon="10.5590094618747"><ele>182.0</ele><time>2026-04-19T09:04:53Z</time></trkpt><trkpt lat="43.47006566282563" lon="10.559161070936828"><ele>184.5</ele><time>2026-04-19T09:04:54Z</time></trkpt><trkpt lat="43.47009113091015" lon="10.5593034600559"><ele>187.0</ele><time>2026-04-19T09:04:55Z</time></trkpt><trkpt lat="43.47008836135251" lon="10.55945336627194"><ele>188.2</ele><time>2026-04-19T09:04:55.999Z</time></trkpt><trkpt lat="43.47010968689473" lon="10.55959469169508"><ele>189.39999999999998</ele><time>2026-04-19T09:04:56.999Z</time></trkpt><trkpt lat="43.47009881719535" lon="10.55974036718606"><ele>190.60000000000002</ele><time>2026-04-19T09:04:57.999Z</time></trkpt><trkpt lat="43.470095893232724" lon="10.559888534936386"><ele>191.8</ele><time>2026-04-19T09:04:58.999Z</time></trkpt><trkpt lat="43.47008497348652" lon="10.560033145917682"><ele>193.0</ele><time>2026-04-19T09:04:59.999Z</time></trkpt><trkpt lat="43.47006970469811" lon="10.560159388249708"><ele>192.99999999999997</ele><time>2026-04-19T09:05:00.999Z</time></trkpt><trkpt lat="43.470050170030476" lon="10.560267995026956"><ele>193.0</ele><time>2026-04-19T09:05:01.999Z</time></trkpt><trkpt lat="43.47003552502407" lon="10.560363098768219"><ele>193.0</ele><time>2026-04-19T09:05:02.999Z</time></trkpt><trkpt lat="43.470021789660976" lon="10.56046670829915"><ele>193.0</ele><time>2026-04-19T09:05:03.999Z</time></trkpt><trkpt lat="43.470004286700316" lon="10.56057787183108"><ele>192.99999999999997</ele><time>2026-04-19T09:05:04.999Z</time></trkpt><trkpt lat="43.46999128334136" lon="10.560700406724688"><ele>193.0</ele><time>2026-04-19T09:05:05.999Z</time></trkpt><trkpt lat="43.46999598002293" lon="10.560844119913474"><ele>191.75</ele><time>2026-04-19T09:05:06.999Z</time></trkpt><trkpt lat="43.470012710824584" lon="10.560994903394246"><ele>190.5</ele><time>2026-04-19T09:05:07.999Z</time></trkpt><trkpt lat="43.47004866987176" lon="10.561145588541695"><ele>189.25</ele><time>2026-04-19T09:05:08.999Z</time></trkpt><trkpt lat="43.47010425823995" lon="10.561298375742371"><ele>188.0</ele><time>2026-04-19T09:05:09.999Z</time></trkpt><trkpt lat="43.47017099061579" lon="10.56144904241553"><ele>187.75</ele><time>2026-04-19T09:05:10.999Z</time></trkpt><trkpt lat="43.470235766221734" lon="10.561602855379638"><ele>187.5</ele><time>2026-04-19T09:05:11.999Z</time></trkpt><trkpt lat="43.47029636428024" lon="10.561758479521167"><ele>187.25</ele><time>2026-04-19T09:05:12.999Z</time></trkpt><trkpt lat="43.47036380328837" lon="10.561905174365299"><ele>187.0</ele><time>2026-04-19T09:05:13.999Z</time></trkpt><trkpt lat="43.47044260656143" lon="10.562042954957347"><ele>187.0</ele><time>2026-04-19T09:05:14.999Z</time></trkpt><trkpt lat="43.470522861958216" lon="10.56216746093963"><ele>187.0</ele><time>2026-04-19T09:05:15.999Z</time></trkpt><trkpt lat="43.47060188199942" lon="10.562278328901096"><ele>187.0</ele><time>2026-04-19T09:05:16.999Z</time></trkpt><trkpt lat="43.4706913349893" lon="10.562373908306483"><ele>187.0</ele><time>2026-04-19T09:05:17.999Z</time></trkpt><trkpt lat="43.47078703479496" lon="10.562459600137203"><ele>187.0</ele><time>2026-04-19T09:05:18.999Z</time></trkpt><trkpt lat="43.47088649860501" lon="10.562535778205126"><ele>187.0</ele><time>2026-04-19T09:05:19.999Z</time></trkpt><trkpt lat="43.47098473896456" lon="10.562617442515268"><ele>187.0</ele><time>2026-04-19T09:05:20.999Z</time></trkpt><trkpt lat="43.47107083321915" lon="10.562729468003047"><ele>187.0</ele><time>2026-04-19T09:05:21.999Z</time></trkpt><trkpt lat="43.4711512740523" lon="10.562839800257496"><ele>186.2</ele><time>2026-04-19T09:05:22.999Z</time></trkpt><trkpt lat="43.471226346867816" lon="10.562949150311438"><ele>185.39999999999998</ele><time>2026-04-19T09:05:23.999Z</time></trkpt><trkpt lat="43.471299059761755" lon="10.563065167142227"><ele>184.60000000000002</ele><time>2026-04-19T09:05:24.999Z</time></trkpt><trkpt lat="43.47137146098142" lon="10.563174777249627"><ele>183.8</ele><time>2026-04-19T09:05:25.999Z</time></trkpt><trkpt lat="43.47144001510703" lon="10.563279667324567"><ele>183.0</ele><time>2026-04-19T09:05:26.999Z</time></trkpt><trkpt lat="43.471512871584466" lon="10.563370813768824"><ele>184.66666666666666</ele><time>2026-04-19T09:05:27.999Z</time></trkpt><trkpt lat="43.471569070535395" lon="10.563455378779384"><ele>186.33333333333331</ele><time>2026-04-19T09:05:28.999Z</time></trkpt><trkpt lat="43.47161618921195" lon="10.563540436764155"><ele>188.0</ele><time>2026-04-19T09:05:29.999Z</time></trkpt><trkpt lat="43.4716416088157" lon="10.563635233617386"><ele>189.66666666666666</ele><time>2026-04-19T09:05:30.999Z</time></trkpt><trkpt lat="43.47167169907402" lon="10.563745287010612"><ele>191.33333333333331</ele><time>2026-04-19T09:05:31.999Z</time></trkpt><trkpt lat="43.47170298071589" lon="10.563867091238537"><ele>193.0</ele><time>2026-04-19T09:05:32.999Z</time></trkpt><trkpt lat="43.471736284525115" lon="10.563997407767628"><ele>193.0</ele><time>2026-04-19T09:05:33.999Z</time></trkpt><trkpt lat="43.471757577072104" lon="10.56414127647589"><ele>193.0</ele><time>2026-04-19T09:05:34.999Z</time></trkpt><trkpt lat="43.47179714410587" lon="10.564282373572285"><ele>193.0</ele><time>2026-04-19T09:05:35.999Z</time></trkpt><trkpt lat="43.471842184955285" lon="10.564424366224145"><ele>193.0</ele><time>2026-04-19T09:05:36.999Z</time></trkpt><trkpt lat="43.47188959026305" lon="10.564554149099004"><ele>193.0</ele><time>2026-04-19T09:05:37.999Z</time></trkpt><trkpt lat="43.47194537545018" lon="10.564675732717081"><ele>192.4</ele><time>2026-04-19T09:05:38.999Z</time></trkpt><trkpt lat="43.47201874219221" lon="10.564783546025115"><ele>191.8</ele><time>2026-04-19T09:05:39.999Z</time></trkpt><trkpt lat="43.47211354149234" lon="10.564866015219193"><ele>191.2</ele><time>2026-04-19T09:05:40.999Z</time></trkpt><trkpt lat="43.47220386503965" lon="10.564933856216946"><ele>190.6</ele><time>2026-04-19T09:05:41.999Z</time></trkpt><trkpt lat="43.47228260312542" lon="10.564992372477501"><ele>190.0</ele><time>2026-04-19T09:05:42.999Z</time></trkpt><trkpt lat="43.47235096229708" lon="10.565044347289003"><ele>191.5</ele><time>2026-04-19T09:05:43.999Z</time></trkpt><trkpt lat="43.472412947396904" lon="10.565091830663786"><ele>193.0</ele><time>2026-04-19T09:05:44.999Z</time></trkpt><trkpt lat="43.47250706244009" lon="10.565174332256296"><ele>194.5</ele><time>2026-04-19T09:05:46.999Z</time></trkpt><trkpt lat="43.47259157321431" lon="10.565190379322143"><ele>196.0</ele><time>2026-04-19T09:05:48.999Z</time></trkpt><trkpt lat="43.47264931683597" lon="10.565154054198759"><ele>197.49999999999997</ele><time>2026-04-19T09:05:52.999Z</time></trkpt><trkpt lat="43.47272452681713" lon="10.56512548551831"><ele>199.0</ele><time>2026-04-19T09:06:08.998Z</time></trkpt><trkpt lat="43.47281454360591" lon="10.565084927106055"><ele>198.99999999999997</ele><time>2026-04-19T09:06:11.998Z</time></trkpt><trkpt lat="43.47286184314323" lon="10.565166878142946"><ele>199.0</ele><time>2026-04-19T09:06:12.998Z</time></trkpt><trkpt lat="43.472925587077455" lon="10.565210712485225"><ele>199.0</ele><time>2026-04-19T09:06:13.998Z</time></trkpt><trkpt lat="43.47298277962969" lon="10.565292216045373"><ele>199.0</ele><time>2026-04-19T09:06:14.998Z</time></trkpt><trkpt lat="43.47304216553771" lon="10.565376747066038"><ele>198.99999999999997</ele><time>2026-04-19T09:06:15.998Z</time></trkpt><trkpt lat="43.47310491142782" lon="10.565472472399605"><ele>199.0</ele><time>2026-04-19T09:06:16.998Z</time></trkpt><trkpt lat="43.473172879136214" lon="10.565574766784849"><ele>199.2</ele><time>2026-04-19T09:06:17.998Z</time></trkpt><trkpt lat="43.47324438750645" lon="10.565675673885274"><ele>199.39999999999998</ele><time>2026-04-19T09:06:18.998Z</time></trkpt><trkpt lat="43.473312224769145" lon="10.565769626609091"><ele>199.6</ele><time>2026-04-19T09:06:19.998Z</time></trkpt><trkpt lat="43.473382277599526" lon="10.565863646932433"><ele>199.8</ele><time>2026-04-19T09:06:20.998Z</time></trkpt><trkpt lat="43.47345038295277" lon="10.565947534405698"><ele>200.0</ele><time>2026-04-19T09:06:21.998Z</time></trkpt><trkpt lat="43.47352056199041" lon="10.56602305220767"><ele>200.0</ele><time>2026-04-19T09:06:22.998Z</time></trkpt><trkpt lat="43.47358394469504" lon="10.566100032679714"><ele>200.0</ele><time>2026-04-19T09:06:23.998Z</time></trkpt><trkpt lat="43.47363252845035" lon="10.566198534980238"><ele>200.0</ele><time>2026-04-19T09:06:24.998Z</time></trkpt><trkpt lat="43.47366650173936" lon="10.566318508154321"><ele>200.0</ele><time>2026-04-19T09:06:25.998Z</time></trkpt><trkpt lat="43.47369816273612" lon="10.566453738238192"><ele>200.0</ele><time>2026-04-19T09:06:26.998Z</time></trkpt><trkpt lat="43.473736642992044" lon="10.566599125875031"><ele>200.6</ele><time>2026-04-19T09:06:27.998Z</time></trkpt><trkpt lat="43.47376647094126" lon="10.566757621501148"><ele>201.2</ele><time>2026-04-19T09:06:28.998Z</time></trkpt><trkpt lat="43.47381182733555" lon="10.566895289538344"><ele>201.8</ele><time>2026-04-19T09:06:29.998Z</time></trkpt><trkpt lat="43.47386467832574" lon="10.567020660459677"><ele>202.4</ele><time>2026-04-19T09:06:30.998Z</time></trkpt><trkpt lat="43.47391825380831" lon="10.567131294421797"><ele>203.0</ele><time>2026-04-19T09:06:31.998Z</time></trkpt><trkpt lat="43.47398763624835" lon="10.56720488668621"><ele>203.00000000000003</ele><time>2026-04-19T09:06:32.998Z</time></trkpt><trkpt lat="43.47404472452872" lon="10.567280635918332"><ele>203.0</ele><time>2026-04-19T09:06:33.998Z</time></trkpt><trkpt lat="43.47412640592152" lon="10.56725190622558"><ele>203.0</ele><time>2026-04-19T09:06:34.998Z</time></trkpt><trkpt lat="43.47418550745147" lon="10.567196405839246"><ele>203.0</ele><time>2026-04-19T09:06:35.999Z</time></trkpt><trkpt lat="43.47420806017542" lon="10.56710050138623"><ele>203.00000000000003</ele><time>2026-04-19T09:06:36.999Z</time></trkpt><trkpt lat="43.474183463237395" lon="10.566962011008439"><ele>203.0</ele><time>2026-04-19T09:06:37.999Z</time></trkpt><trkpt lat="43.474145783813086" lon="10.566831020464868"><ele>203.0</ele><time>2026-04-19T09:06:38.999Z</time></trkpt><trkpt lat="43.4741264150145" lon="10.566697881761778"><ele>203.0</ele><time>2026-04-19T09:06:39.999Z</time></trkpt><trkpt lat="43.47411463759742" lon="10.566561248694288"><ele>203.0</ele><time>2026-04-19T09:06:40.999Z</time></trkpt><trkpt lat="43.47411375473967" lon="10.56641929431195"><ele>203.0</ele><time>2026-04-19T09:06:41.999Z</time></trkpt><trkpt lat="43.47414242400082" lon="10.566279608892303"><ele>203.0</ele><time>2026-04-19T09:06:43Z</time></trkpt><trkpt lat="43.47418717436147" lon="10.566158589984358"><ele>200.60000000000002</ele><time>2026-04-19T09:06:43.999Z</time></trkpt><trkpt lat="43.47424436948193" lon="10.566059516575152"><ele>198.20000000000002</ele><time>2026-04-19T09:06:45Z</time></trkpt><trkpt lat="43.474322303842314" lon="10.565994465486455"><ele>195.8</ele><time>2026-04-19T09:06:46Z</time></trkpt><trkpt lat="43.47441586452118" lon="10.565963527151528"><ele>193.4</ele><time>2026-04-19T09:06:47Z</time></trkpt><trkpt lat="43.4745269672535" lon="10.565950814150087"><ele>191.0</ele><time>2026-04-19T09:06:48Z</time></trkpt><trkpt lat="43.47464062461665" lon="10.565920194812708"><ele>191.0</ele><time>2026-04-19T09:06:49Z</time></trkpt><trkpt lat="43.47474852297443" lon="10.565878235765075"><ele>191.0</ele><time>2026-04-19T09:06:50Z</time></trkpt><trkpt lat="43.47484798145244" lon="10.565809907864356"><ele>191.0</ele><time>2026-04-19T09:06:51Z</time></trkpt><trkpt lat="43.474948125120406" lon="10.565736724189843"><ele>191.0</ele><time>2026-04-19T09:06:52Z</time></trkpt><trkpt lat="43.47504925384425" lon="10.56566911629901"><ele>191.0</ele><time>2026-04-19T09:06:53Z</time></trkpt><trkpt lat="43.47514064814888" lon="10.565618398257453"><ele>191.0</ele><time>2026-04-19T09:06:54Z</time></trkpt><trkpt lat="43.47521642476194" lon="10.565570162378403"><ele>191.0</ele><time>2026-04-19T09:06:55Z</time></trkpt><trkpt lat="43.475284822315956" lon="10.56552852129215"><ele>191.0</ele><time>2026-04-19T09:06:56Z</time></trkpt><trkpt lat="43.475352652749066" lon="10.565497990124374"><ele>191.0</ele><time>2026-04-19T09:06:57Z</time></trkpt><trkpt lat="43.47542501945576" lon="10.565481072697658"><ele>191.0</ele><time>2026-04-19T09:06:58Z</time></trkpt><trkpt lat="43.47550273360502" lon="10.565477729791537"><ele>191.0</ele><time>2026-04-19T09:06:59Z</time></trkpt><trkpt lat="43.47557281266173" lon="10.565478448772689"><ele>191.8</ele><time>2026-04-19T09:07:00Z</time></trkpt><trkpt lat="43.47570762720662" lon="10.565473294730763"><ele>192.60000000000002</ele><time>2026-04-19T09:07:02Z</time></trkpt><trkpt lat="43.47578666940061" lon="10.565448496994149"><ele>193.4</ele><time>2026-04-19T09:07:02.999Z</time></trkpt><trkpt lat="43.47586675948651" lon="10.565406939738688"><ele>194.2</ele><time>2026-04-19T09:07:03.999Z</time></trkpt><trkpt lat="43.475943795987895" lon="10.565352771460045"><ele>195.0</ele><time>2026-04-19T09:07:04.999Z</time></trkpt><trkpt lat="43.476020959520724" lon="10.565289687996998"><ele>194.2</ele><time>2026-04-19T09:07:05.999Z</time></trkpt><trkpt lat="43.476100435908066" lon="10.565222620462201"><ele>193.4</ele><time>2026-04-19T09:07:06.999Z</time></trkpt><trkpt lat="43.476179429089804" lon="10.56515593502443"><ele>192.60000000000002</ele><time>2026-04-19T09:07:07.999Z</time></trkpt><trkpt lat="43.47625438784227" lon="10.565076343941152"><ele>191.8</ele><time>2026-04-19T09:07:08.999Z</time></trkpt><trkpt lat="43.47632278126729" lon="10.564980511614152"><ele>191.0</ele><time>2026-04-19T09:07:09.999Z</time></trkpt><trkpt lat="43.47638090039201" lon="10.564872016196503"><ele>191.0</ele><time>2026-04-19T09:07:10.999Z</time></trkpt><trkpt lat="43.4764350808706" lon="10.564756775219447"><ele>191.0</ele><time>2026-04-19T09:07:11.999Z</time></trkpt><trkpt lat="43.476489340436956" lon="10.564639968163883"><ele>191.0</ele><time>2026-04-19T09:07:12.999Z</time></trkpt><trkpt lat="43.476545378566016" lon="10.564548379868656"><ele>191.0</ele><time>2026-04-19T09:07:13.999Z</time></trkpt><trkpt lat="43.47661103485871" lon="10.564471951766757"><ele>191.0</ele><time>2026-04-19T09:07:15.999Z</time></trkpt><trkpt lat="43.47665252772177" lon="10.564395037101503"><ele>191.0</ele><time>2026-04-19T09:07:20.999Z</time></trkpt><trkpt lat="43.47656303959029" lon="10.564466708416242"><ele>191.0</ele><time>2026-04-19T09:07:27.999Z</time></trkpt><trkpt lat="43.47651852473154" lon="10.564554157326022"><ele>191.0</ele><time>2026-04-19T09:07:28.999Z</time></trkpt><trkpt lat="43.47644132259249" lon="10.564713555569913"><ele>191.0</ele><time>2026-04-19T09:07:29.999Z</time></trkpt><trkpt lat="43.47638164687761" lon="10.56483750876395"><ele>191.0</ele><time>2026-04-19T09:07:30.999Z</time></trkpt><trkpt lat="43.476318181822165" lon="10.564962858995466"><ele>191.0</ele><time>2026-04-19T09:07:31.999Z</time></trkpt><trkpt lat="43.47623969697731" lon="10.565078044952468"><ele>192.0</ele><time>2026-04-19T09:07:32.999Z</time></trkpt><trkpt lat="43.476136576710054" lon="10.565168981807512"><ele>193.0</ele><time>2026-04-19T09:07:33.999Z</time></trkpt><trkpt lat="43.47602064188352" lon="10.565260721414663"><ele>194.0</ele><time>2026-04-19T09:07:34.999Z</time></trkpt><trkpt lat="43.47589705340206" lon="10.565348851591528"><ele>195.0</ele><time>2026-04-19T09:07:35.999Z</time></trkpt><trkpt lat="43.475764938227236" lon="10.565413844125105"><ele>195.0</ele><time>2026-04-19T09:07:36.999Z</time></trkpt><trkpt lat="43.47562042762025" lon="10.56544492302687"><ele>195.0</ele><time>2026-04-19T09:07:37.999Z</time></trkpt><trkpt lat="43.47549198680529" lon="10.565432546038531"><ele>195.0</ele><time>2026-04-19T09:07:38.999Z</time></trkpt><trkpt lat="43.47537291215169" lon="10.565438802841115"><ele>195.0</ele><time>2026-04-19T09:07:39.999Z</time></trkpt><trkpt lat="43.475247070987756" lon="10.565494738070825"><ele>194.0</ele><time>2026-04-19T09:07:40.999Z</time></trkpt><trkpt lat="43.475120310259236" lon="10.56557659830696"><ele>193.0</ele><time>2026-04-19T09:07:41.999Z</time></trkpt><trkpt lat="43.47499034495653" lon="10.565671437590417"><ele>192.0</ele><time>2026-04-19T09:07:42.999Z</time></trkpt><trkpt lat="43.47486106671469" lon="10.565758930389737"><ele>191.0</ele><time>2026-04-19T09:07:43.999Z</time></trkpt><trkpt lat="43.474733376071995" lon="10.565827295140718"><ele>191.0</ele><time>2026-04-19T09:07:44.999Z</time></trkpt><trkpt lat="43.47460874948573" lon="10.565893538019786"><ele>191.0</ele><time>2026-04-19T09:07:45.999Z</time></trkpt><trkpt lat="43.47448936694973" lon="10.565929260365213"><ele>191.0</ele><time>2026-04-19T09:07:46.999Z</time></trkpt><trkpt lat="43.47437768067902" lon="10.565950919413474"><ele>191.0</ele><time>2026-04-19T09:07:47.999Z</time></trkpt><trkpt lat="43.474285084342476" lon="10.565998836518785"><ele>189.0</ele><time>2026-04-19T09:07:48.999Z</time></trkpt><trkpt lat="43.47420359954455" lon="10.56610273977062"><ele>187.0</ele><time>2026-04-19T09:07:49.999Z</time></trkpt><trkpt lat="43.47415038855592" lon="10.566257826325428"><ele>185.0</ele><time>2026-04-19T09:07:50.999Z</time></trkpt><trkpt lat="43.474111383181516" lon="10.5664427841364"><ele>183.0</ele><time>2026-04-19T09:07:51.999Z</time></trkpt><trkpt lat="43.474099983073984" lon="10.566626264858147"><ele>187.0</ele><time>2026-04-19T09:07:52.999Z</time></trkpt><trkpt lat="43.47413208761495" lon="10.566785291445537"><ele>191.0</ele><time>2026-04-19T09:07:53.999Z</time></trkpt><trkpt lat="43.47416639208848" lon="10.566900982407304"><ele>195.0</ele><time>2026-04-19T09:07:54.999Z</time></trkpt><trkpt lat="43.47420217017238" lon="10.56701230179454"><ele>199.0</ele><time>2026-04-19T09:07:55.999Z</time></trkpt><trkpt lat="43.47420370685623" lon="10.567103394493"><ele>203.0</ele><time>2026-04-19T09:07:56.999Z</time></trkpt><trkpt lat="43.474117989359414" lon="10.567219478798533"><ele>203.0</ele><time>2026-04-19T09:07:58.999Z</time></trkpt><trkpt lat="43.474000488150516" lon="10.567149310359648"><ele>203.0</ele><time>2026-04-19T09:08:00.999Z</time></trkpt><trkpt lat="43.47395404826691" lon="10.567056006170555"><ele>203.0</ele><time>2026-04-19T09:08:01.999Z</time></trkpt><trkpt lat="43.4739097727152" lon="10.566946505941571"><ele>203.0</ele><time>2026-04-19T09:08:02.999Z</time></trkpt><trkpt lat="43.4738538284432" lon="10.566827617145355"><ele>203.0</ele><time>2026-04-19T09:08:03.999Z</time></trkpt><trkpt lat="43.473802404015096" lon="10.566683420786575"><ele>202.25</ele><time>2026-04-19T09:08:04.999Z</time></trkpt><trkpt lat="43.473761650258915" lon="10.566525547210848"><ele>201.5</ele><time>2026-04-19T09:08:05.999Z</time></trkpt><trkpt lat="43.47371921603609" lon="10.566367499061789"><ele>200.75</ele><time>2026-04-19T09:08:06.999Z</time></trkpt><trkpt lat="43.4736813692827" lon="10.566225904325213"><ele>200.0</ele><time>2026-04-19T09:08:07.999Z</time></trkpt><trkpt lat="43.47363153071888" lon="10.566095206027638"><ele>200.0</ele><time>2026-04-19T09:08:08.999Z</time></trkpt><trkpt lat="43.473549686481945" lon="10.565981997511287"><ele>200.0</ele><time>2026-04-19T09:08:09.999Z</time></trkpt><trkpt lat="43.473441890272596" lon="10.565877553886535"><ele>200.0</ele><time>2026-04-19T09:08:10.999Z</time></trkpt><trkpt lat="43.47333482453185" lon="10.565758623966943"><ele>200.0</ele><time>2026-04-19T09:08:11.999Z</time></trkpt><trkpt lat="43.47323455563136" lon="10.565635181507309"><ele>200.0</ele><time>2026-04-19T09:08:12.999Z</time></trkpt><trkpt lat="43.47314795347359" lon="10.56551787736118"><ele>200.0</ele><time>2026-04-19T09:08:13.999Z</time></trkpt><trkpt lat="43.47306672893246" lon="10.565407328667836"><ele>200.0</ele><time>2026-04-19T09:08:14.998Z</time></trkpt><trkpt lat="43.47299119899947" lon="10.565299987867865"><ele>200.0</ele><time>2026-04-19T09:08:15.998Z</time></trkpt><trkpt lat="43.47292183740125" lon="10.56520742396998"><ele>200.0</ele><time>2026-04-19T09:08:16.998Z</time></trkpt><trkpt lat="43.472852390307615" lon="10.56513210342305"><ele>199.8</ele><time>2026-04-19T09:08:17.998Z</time></trkpt><trkpt lat="43.47278771952079" lon="10.565084699105654"><ele>199.6</ele><time>2026-04-19T09:08:18.998Z</time></trkpt><trkpt lat="43.472690859010015" lon="10.565077521031505"><ele>199.39999999999998</ele><time>2026-04-19T09:08:20.998Z</time></trkpt><trkpt lat="43.472691559240474" lon="10.565277609130222"><ele>199.2</ele><time>2026-04-19T09:08:24.998Z</time></trkpt><trkpt lat="43.472753888713385" lon="10.565348224703724"><ele>199.0</ele><time>2026-04-19T09:08:25.998Z</time></trkpt><trkpt lat="43.472802251749066" lon="10.565414804980168"><ele>199.16666666666666</ele><time>2026-04-19T09:08:26.998Z</time></trkpt><trkpt lat="43.47285677914865" lon="10.56548223432048"><ele>199.33333333333331</ele><time>2026-04-19T09:08:27.998Z</time></trkpt><trkpt lat="43.472912397068384" lon="10.565558373747836"><ele>199.5</ele><time>2026-04-19T09:08:28.998Z</time></trkpt><trkpt lat="43.47296561875518" lon="10.565638975834474"><ele>199.66666666666669</ele><time>2026-04-19T09:08:29.998Z</time></trkpt><trkpt lat="43.47302567390988" lon="10.565719045390855"><ele>199.83333333333334</ele><time>2026-04-19T09:08:30.998Z</time></trkpt><trkpt lat="43.47308919327957" lon="10.56580149181093"><ele>200.0</ele><time>2026-04-19T09:08:31.998Z</time></trkpt><trkpt lat="43.47314868493372" lon="10.565878508238379"><ele>200.0</ele><time>2026-04-19T09:08:32.998Z</time></trkpt><trkpt lat="43.47319436930951" lon="10.56593972183967"><ele>200.0</ele><time>2026-04-19T09:08:33.998Z</time></trkpt><trkpt lat="43.47327396988167" lon="10.566060413322331"><ele>200.0</ele><time>2026-04-19T09:08:35.998Z</time></trkpt><trkpt lat="43.47333699565225" lon="10.566163358813334"><ele>200.0</ele><time>2026-04-19T09:08:37.998Z</time></trkpt><trkpt lat="43.47340757011871" lon="10.566245617136941"><ele>200.0</ele><time>2026-04-19T09:08:58.999Z</time></trkpt><trkpt lat="43.47348575966034" lon="10.566386342041085"><ele>203.00000000000003</ele><time>2026-04-19T09:09:00.999Z</time></trkpt><trkpt lat="43.47351159851811" lon="10.566479556601292"><ele>206.0</ele><time>2026-04-19T09:09:01.999Z</time></trkpt><trkpt lat="43.47353223212454" lon="10.566581151816656"><ele>209.0</ele><time>2026-04-19T09:09:02.999Z</time></trkpt><trkpt lat="43.47352922321638" lon="10.566689968880969"><ele>212.0</ele><time>2026-04-19T09:09:03.999Z</time></trkpt><trkpt lat="43.47354513489637" lon="10.566797566662117"><ele>215.00000000000003</ele><time>2026-04-19T09:09:04.999Z</time></trkpt><trkpt lat="43.47358122415609" lon="10.566899193359387"><ele>218.0</ele><time>2026-04-19T09:09:05.999Z</time></trkpt><trkpt lat="43.473602497697165" lon="10.56700985541264"><ele>219.60000000000002</ele><time>2026-04-19T09:09:06.999Z</time></trkpt><trkpt lat="43.473633985772096" lon="10.56711594325603"><ele>221.20000000000002</ele><time>2026-04-19T09:09:07.999Z</time></trkpt><trkpt lat="43.47367334668397" lon="10.567219962045803"><ele>222.8</ele><time>2026-04-19T09:09:08.999Z</time></trkpt><trkpt lat="43.4737103463572" lon="10.567331547824484"><ele>224.4</ele><time>2026-04-19T09:09:09.999Z</time></trkpt><trkpt lat="43.47373378444964" lon="10.567456988639595"><ele>226.0</ele><time>2026-04-19T09:09:10.999Z</time></trkpt><trkpt lat="43.47374471164611" lon="10.567592545050262"><ele>224.60000000000002</ele><time>2026-04-19T09:09:11.999Z</time></trkpt><trkpt lat="43.4738124752645" lon="10.567697161789738"><ele>223.20000000000002</ele><time>2026-04-19T09:09:12.999Z</time></trkpt><trkpt lat="43.473881087245225" lon="10.5677884708836"><ele>221.79999999999998</ele><time>2026-04-19T09:09:13.999Z</time></trkpt><trkpt lat="43.47392439778923" lon="10.567893074511835"><ele>220.39999999999998</ele><time>2026-04-19T09:09:14.999Z</time></trkpt><trkpt lat="43.473967952357" lon="10.567999568504506"><ele>219.0</ele><time>2026-04-19T09:09:15.999Z</time></trkpt><trkpt lat="43.47401947054491" lon="10.568105441794307"><ele>219.0</ele><time>2026-04-19T09:09:16.999Z</time></trkpt><trkpt lat="43.474094604525625" lon="10.568183637013092"><ele>218.99999999999997</ele><time>2026-04-19T09:09:17.999Z</time></trkpt><trkpt lat="43.47417722809244" lon="10.56826267454341"><ele>218.99999999999997</ele><time>2026-04-19T09:09:18.999Z</time></trkpt><trkpt lat="43.474255257187664" lon="10.56833152981616"><ele>219.0</ele><time>2026-04-19T09:09:19.999Z</time></trkpt><trkpt lat="43.47433448804366" lon="10.568402465863013"><ele>219.0</ele><time>2026-04-19T09:09:20.999Z</time></trkpt><trkpt lat="43.47439346154903" lon="10.56848816002334"><ele>219.0</ele><time>2026-04-19T09:09:21.999Z</time></trkpt><trkpt lat="43.47445893324322" lon="10.56854934694755"><ele>219.0</ele><time>2026-04-19T09:09:22.999Z</time></trkpt><trkpt lat="43.47448172670118" lon="10.568660423595713"><ele>219.0</ele><time>2026-04-19T09:09:23.999Z</time></trkpt><trkpt lat="43.47449058505646" lon="10.56876299936874"><ele>219.0</ele><time>2026-04-19T09:09:24.999Z</time></trkpt><trkpt lat="43.474485164578894" lon="10.568872943225214"><ele>219.0</ele><time>2026-04-19T09:09:25.999Z</time></trkpt><trkpt lat="43.47449315999168" lon="10.568969357058977"><ele>219.0</ele><time>2026-04-19T09:09:26.999Z</time></trkpt><trkpt lat="43.474470558490665" lon="10.569119694292262"><ele>219.79999999999998</ele><time>2026-04-19T09:09:28.999Z</time></trkpt><trkpt lat="43.47447275123311" lon="10.56925838921763"><ele>220.59999999999997</ele><time>2026-04-19T09:09:30.999Z</time></trkpt><trkpt lat="43.47459417532339" lon="10.569344408778079"><ele>221.4</ele><time>2026-04-19T09:09:33.999Z</time></trkpt><trkpt lat="43.474714924241674" lon="10.569370083974444"><ele>222.2</ele><time>2026-04-19T09:09:35.999Z</time></trkpt><trkpt lat="43.47478370937297" lon="10.569394232000304"><ele>223.0</ele><time>2026-04-19T09:09:36.999Z</time></trkpt><trkpt lat="43.474857872789826" lon="10.569421702967011"><ele>222.99999999999997</ele><time>2026-04-19T09:09:37.999Z</time></trkpt><trkpt lat="43.474928023828184" lon="10.56944706476387"><ele>223.0</ele><time>2026-04-19T09:09:38.999Z</time></trkpt><trkpt lat="43.47498972282933" lon="10.569480846793187"><ele>223.0</ele><time>2026-04-19T09:09:39.999Z</time></trkpt><trkpt lat="43.4750974117063" lon="10.569562886993173"><ele>223.0</ele><time>2026-04-19T09:09:41.999Z</time></trkpt><trkpt lat="43.475156806098056" lon="10.569604454853197"><ele>222.99999999999997</ele><time>2026-04-19T09:09:42.999Z</time></trkpt><trkpt lat="43.47527022318547" lon="10.569625617275506"><ele>223.0</ele><time>2026-04-19T09:09:44.999Z</time></trkpt><trkpt lat="43.47534136404839" lon="10.569621315589519"><ele>227.8</ele><time>2026-04-19T09:09:46.999Z</time></trkpt><trkpt lat="43.47542258546896" lon="10.569618272754798"><ele>232.60000000000002</ele><time>2026-04-19T09:09:48.999Z</time></trkpt><trkpt lat="43.47551419933568" lon="10.569658345052478"><ele>237.39999999999998</ele><time>2026-04-19T09:09:50.999Z</time></trkpt><trkpt lat="43.47562642135433" lon="10.569705803397891"><ele>242.2</ele><time>2026-04-19T09:09:52.999Z</time></trkpt><trkpt lat="43.47573476082006" lon="10.569759000894422"><ele>247.0</ele><time>2026-04-19T09:09:54.999Z</time></trkpt><trkpt lat="43.47580489630708" lon="10.569802913742897"><ele>246.99999999999997</ele><time>2026-04-19T09:09:55.999Z</time></trkpt><trkpt lat="43.47586694559884" lon="10.569867666188404"><ele>247.0</ele><time>2026-04-19T09:09:56.999Z</time></trkpt><trkpt lat="43.47592854463436" lon="10.569913721450241"><ele>247.0</ele><time>2026-04-19T09:09:57.999Z</time></trkpt><trkpt lat="43.475987389969646" lon="10.569959760969727"><ele>247.0</ele><time>2026-04-19T09:09:58.999Z</time></trkpt><trkpt lat="43.47605010154195" lon="10.570064619380371"><ele>246.99999999999997</ele><time>2026-04-19T09:10:00.999Z</time></trkpt><trkpt lat="43.476161444485086" lon="10.570162718788374"><ele>247.0</ele><time>2026-04-19T09:10:02.999Z</time></trkpt><trkpt lat="43.47621003821475" lon="10.5702186732915"><ele>246.8</ele><time>2026-04-19T09:10:03.999Z</time></trkpt><trkpt lat="43.476300448064954" lon="10.570327624482998"><ele>246.6</ele><time>2026-04-19T09:10:05.999Z</time></trkpt><trkpt lat="43.47636641796132" lon="10.57037106679446"><ele>246.40000000000003</ele><time>2026-04-19T09:10:07.999Z</time></trkpt><trkpt lat="43.476449414506845" lon="10.570384656344704"><ele>246.20000000000002</ele><time>2026-04-19T09:10:09.999Z</time></trkpt><trkpt lat="43.47653090709924" lon="10.570339796208184"><ele>246.0</ele><time>2026-04-19T09:10:11.999Z</time></trkpt><trkpt lat="43.476626495885974" lon="10.570256916936104"><ele>246.0</ele><time>2026-04-19T09:10:13.999Z</time></trkpt><trkpt lat="43.476664763205854" lon="10.570185293587027"><ele>246.0</ele><time>2026-04-19T09:10:14.999Z</time></trkpt><trkpt lat="43.47670142575438" lon="10.570112777160707"><ele>246.0</ele><time>2026-04-19T09:10:15.999Z</time></trkpt><trkpt lat="43.47671579611902" lon="10.569990808153571"><ele>246.0</ele><time>2026-04-19T09:10:17.999Z</time></trkpt><trkpt lat="43.47667213167158" lon="10.569857195782122"><ele>246.0</ele><time>2026-04-19T09:10:19.999Z</time></trkpt><trkpt lat="43.47662717438841" lon="10.569784331077804"><ele>246.0</ele><time>2026-04-19T09:10:20.999Z</time></trkpt><trkpt lat="43.47658435579181" lon="10.569667575161793"><ele>246.0</ele><time>2026-04-19T09:10:21.998Z</time></trkpt><trkpt lat="43.476539941248035" lon="10.569584242887633"><ele>246.0</ele><time>2026-04-19T09:10:22.998Z</time></trkpt><trkpt lat="43.47646942890075" lon="10.569455676230401"><ele>246.0</ele><time>2026-04-19T09:10:24.998Z</time></trkpt><trkpt lat="43.47644765691173" lon="10.569368641359462"><ele>246.0</ele><time>2026-04-19T09:10:25.998Z</time></trkpt><trkpt lat="43.47643894621404" lon="10.569274963357005"><ele>246.0</ele><time>2026-04-19T09:10:26.998Z</time></trkpt><trkpt lat="43.476465747399736" lon="10.569133590655923"><ele>246.0</ele><time>2026-04-19T09:10:28.998Z</time></trkpt><trkpt lat="43.47651200928649" lon="10.568984499254094"><ele>246.0</ele><time>2026-04-19T09:10:30.998Z</time></trkpt><trkpt lat="43.476552991975936" lon="10.568891466105574"><ele>246.0</ele><time>2026-04-19T09:10:31.998Z</time></trkpt><trkpt lat="43.47660218007927" lon="10.56881811305402"><ele>246.0</ele><time>2026-04-19T09:10:32.998Z</time></trkpt><trkpt lat="43.47665327800466" lon="10.568764956087204"><ele>246.0</ele><time>2026-04-19T09:10:33.998Z</time></trkpt><trkpt lat="43.476749113372605" lon="10.56870783456401"><ele>246.0</ele><time>2026-04-19T09:10:35.998Z</time></trkpt><trkpt lat="43.476847876593474" lon="10.568687397967931"><ele>246.0</ele><time>2026-04-19T09:10:37.998Z</time></trkpt><trkpt lat="43.4769592213831" lon="10.568693901648183"><ele>246.0</ele><time>2026-04-19T09:10:39.998Z</time></trkpt><trkpt lat="43.477019155207" lon="10.568738672976952"><ele>246.0</ele><time>2026-04-19T09:10:40.998Z</time></trkpt><trkpt lat="43.47709264150688" lon="10.568776334895354"><ele>246.0</ele><time>2026-04-19T09:10:41.998Z</time></trkpt><trkpt lat="43.47718065051165" lon="10.568835463234928"><ele>246.0</ele><time>2026-04-19T09:10:42.998Z</time></trkpt><trkpt lat="43.47725194998202" lon="10.568911607048896"><ele>246.0</ele><time>2026-04-19T09:10:43.998Z</time></trkpt><trkpt lat="43.47731680292117" lon="10.568952060650753"><ele>246.0</ele><time>2026-04-19T09:10:44.998Z</time></trkpt><trkpt lat="43.47737483625147" lon="10.568994756928548"><ele>248.60000000000002</ele><time>2026-04-19T09:10:45.998Z</time></trkpt><trkpt lat="43.477498886697106" lon="10.569015063837655"><ele>251.20000000000002</ele><time>2026-04-19T09:10:47.999Z</time></trkpt><trkpt lat="43.47759196229155" lon="10.568978451262751"><ele>253.79999999999998</ele><time>2026-04-19T09:10:48.999Z</time></trkpt><trkpt lat="43.47769962497882" lon="10.568969529915023"><ele>256.4</ele><time>2026-04-19T09:10:49.999Z</time></trkpt><trkpt lat="43.47781579603602" lon="10.568977829459866"><ele>259.0</ele><time>2026-04-19T09:10:50.999Z</time></trkpt><trkpt lat="43.47791614616969" lon="10.568969212696572"><ele>260.2</ele><time>2026-04-19T09:10:51.999Z</time></trkpt><trkpt lat="43.478024346839234" lon="10.568986957728866"><ele>261.4</ele><time>2026-04-19T09:10:52.999Z</time></trkpt><trkpt lat="43.47812615071962" lon="10.568999075615615"><ele>262.6</ele><time>2026-04-19T09:10:53.999Z</time></trkpt><trkpt lat="43.47823327966756" lon="10.569019023393565"><ele>263.8</ele><time>2026-04-19T09:10:54.999Z</time></trkpt><trkpt lat="43.47831481577152" lon="10.569033757212313"><ele>265.0</ele><time>2026-04-19T09:10:55.999Z</time></trkpt><trkpt lat="43.47838690635065" lon="10.5690272073293"><ele>265.0</ele><time>2026-04-19T09:10:56.999Z</time></trkpt><trkpt lat="43.478469279405765" lon="10.56902947030578"><ele>265.0</ele><time>2026-04-19T09:10:57.999Z</time></trkpt><trkpt lat="43.478563267147" lon="10.568996974329606"><ele>265.0</ele><time>2026-04-19T09:10:58.999Z</time></trkpt><trkpt lat="43.47865862906995" lon="10.568984180470512"><ele>265.0</ele><time>2026-04-19T09:10:59.999Z</time></trkpt><trkpt lat="43.47876061479811" lon="10.568963227760156"><ele>265.0</ele><time>2026-04-19T09:11:00.999Z</time></trkpt><trkpt lat="43.47885260049828" lon="10.568961923342117"><ele>265.0</ele><time>2026-04-19T09:11:01.999Z</time></trkpt><trkpt lat="43.47894052219213" lon="10.568957634674128"><ele>265.0</ele><time>2026-04-19T09:11:02.999Z</time></trkpt><trkpt lat="43.479030196608264" lon="10.568922625697937"><ele>265.0</ele><time>2026-04-19T09:11:03.999Z</time></trkpt><trkpt lat="43.47911559483174" lon="10.568943597779716"><ele>265.0</ele><time>2026-04-19T09:11:04.999Z</time></trkpt><trkpt lat="43.47920263925854" lon="10.568971227850342"><ele>265.0</ele><time>2026-04-19T09:11:05.999Z</time></trkpt><trkpt lat="43.47927845000493" lon="10.569011047002759"><ele>265.0</ele><time>2026-04-19T09:11:06.999Z</time></trkpt><trkpt lat="43.4793496636433" lon="10.569061549030755"><ele>265.0</ele><time>2026-04-19T09:11:07.999Z</time></trkpt><trkpt lat="43.479422741304354" lon="10.569132107296975"><ele>265.0</ele><time>2026-04-19T09:11:08.999Z</time></trkpt><trkpt lat="43.479495551320596" lon="10.569216181740325"><ele>265.0</ele><time>2026-04-19T09:11:09.999Z</time></trkpt><trkpt lat="43.479585476228294" lon="10.569316579165791"><ele>265.0</ele><time>2026-04-19T09:11:10.999Z</time></trkpt><trkpt lat="43.47966064602511" lon="10.569402572006613"><ele>265.0</ele><time>2026-04-19T09:11:11.999Z</time></trkpt><trkpt lat="43.47972816994157" lon="10.569468327242705"><ele>266.5</ele><time>2026-04-19T09:11:12.999Z</time></trkpt><trkpt lat="43.47979579598953" lon="10.569525108490176"><ele>268.0</ele><time>2026-04-19T09:11:13.999Z</time></trkpt><trkpt lat="43.47986542441307" lon="10.569590028551705"><ele>269.5</ele><time>2026-04-19T09:11:14.999Z</time></trkpt><trkpt lat="43.47993268064599" lon="10.569634936222823"><ele>271.0</ele><time>2026-04-19T09:11:15.999Z</time></trkpt><trkpt lat="43.4799884982992" lon="10.569681805634108"><ele>272.5</ele><time>2026-04-19T09:11:16.999Z</time></trkpt><trkpt lat="43.48007720620713" lon="10.569749904087683"><ele>274.0</ele><time>2026-04-19T09:11:18.999Z</time></trkpt><trkpt lat="43.48018804935097" lon="10.569798216193357"><ele>274.0</ele><time>2026-04-19T09:11:20.999Z</time></trkpt><trkpt lat="43.48028523078933" lon="10.569862396831434"><ele>274.0</ele><time>2026-04-19T09:11:22.999Z</time></trkpt><trkpt lat="43.48032600959299" lon="10.56995366678802"><ele>274.0</ele><time>2026-04-19T09:11:24.999Z</time></trkpt><trkpt lat="43.4803155360305" lon="10.570060529053608"><ele>274.0</ele><time>2026-04-19T09:11:26.999Z</time></trkpt><trkpt lat="43.48024276682832" lon="10.570143594594276"><ele>274.0</ele><time>2026-04-19T09:11:28.999Z</time></trkpt><trkpt lat="43.48017967975969" lon="10.570156706270716"><ele>274.0</ele><time>2026-04-19T09:11:30.999Z</time></trkpt><trkpt lat="43.4800529100983" lon="10.570115004184993"><ele>274.0</ele><time>2026-04-19T09:11:32.999Z</time></trkpt><trkpt lat="43.47994710654757" lon="10.5700270158725"><ele>274.0</ele><time>2026-04-19T09:11:34.999Z</time></trkpt><trkpt lat="43.479899819584396" lon="10.569968820640415"><ele>274.0</ele><time>2026-04-19T09:11:35.999Z</time></trkpt><trkpt lat="43.4798477739107" lon="10.569913748903078"><ele>274.0</ele><time>2026-04-19T09:11:36.999Z</time></trkpt><trkpt lat="43.47979273092853" lon="10.569859679097195"><ele>274.0</ele><time>2026-04-19T09:11:37.999Z</time></trkpt><trkpt lat="43.479706520440345" lon="10.569783627383153"><ele>274.0</ele><time>2026-04-19T09:11:39.999Z</time></trkpt><trkpt lat="43.47964677247241" lon="10.569700492500447"><ele>274.0</ele><time>2026-04-19T09:12:33.999Z</time></trkpt><trkpt lat="43.479718173543844" lon="10.569779115243161"><ele>274.0</ele><time>2026-04-19T09:12:49.999Z</time></trkpt><trkpt lat="43.47976998505795" lon="10.5698361672161"><ele>274.0</ele><time>2026-04-19T09:12:51.999Z</time></trkpt><trkpt lat="43.479823839443846" lon="10.569892980625722"><ele>274.0</ele><time>2026-04-19T09:12:54Z</time></trkpt><trkpt lat="43.4798757291816" lon="10.569947743889507"><ele>274.0</ele><time>2026-04-19T09:13:02Z</time></trkpt><trkpt lat="43.479945967349664" lon="10.570016670153631"><ele>274.0</ele><time>2026-04-19T09:13:25Z</time></trkpt><trkpt lat="43.480016135295685" lon="10.570072902448379"><ele>274.00000000000006</ele><time>2026-04-19T09:13:27Z</time></trkpt><trkpt lat="43.4800766813774" lon="10.57011149010202"><ele>274.0</ele><time>2026-04-19T09:13:29Z</time></trkpt><trkpt lat="43.48015412766558" lon="10.570145607143253"><ele>274.0</ele><time>2026-04-19T09:13:31Z</time></trkpt><trkpt lat="43.480219967504134" lon="10.570148389113836"><ele>274.0</ele><time>2026-04-19T09:13:33Z</time></trkpt><trkpt lat="43.48028979923568" lon="10.570085867961522"><ele>274.0</ele><time>2026-04-19T09:13:36Z</time></trkpt><trkpt lat="43.48034486847364" lon="10.570024385296252"><ele>274.00000000000006</ele><time>2026-04-19T09:13:37.999Z</time></trkpt><trkpt lat="43.4803753723155" lon="10.569935758163613"><ele>274.0</ele><time>2026-04-19T09:13:41.999Z</time></trkpt><trkpt lat="43.48050339630601" lon="10.57003225885297"><ele>274.4</ele><time>2026-04-19T09:13:45.999Z</time></trkpt><trkpt lat="43.48057745983614" lon="10.570116157562417"><ele>274.79999999999995</ele><time>2026-04-19T09:13:47.999Z</time></trkpt><trkpt lat="43.48065233897806" lon="10.570211586837997"><ele>275.20000000000005</ele><time>2026-04-19T09:13:49.999Z</time></trkpt><trkpt lat="43.48068503177975" lon="10.570329118140407"><ele>275.6</ele><time>2026-04-19T09:13:51.999Z</time></trkpt><trkpt lat="43.48073322511729" lon="10.570430198087536"><ele>276.0</ele><time>2026-04-19T09:13:53.999Z</time></trkpt><trkpt lat="43.48076092365835" lon="10.570541413895777"><ele>276.0</ele><time>2026-04-19T09:13:55.999Z</time></trkpt><trkpt lat="43.48078702632119" lon="10.570649270226271"><ele>276.0</ele><time>2026-04-19T09:13:57.999Z</time></trkpt><trkpt lat="43.480808874096006" lon="10.57075250608464"><ele>276.0</ele><time>2026-04-19T09:14:00.999Z</time></trkpt><trkpt lat="43.480872728648535" lon="10.570805993744779"><ele>276.0</ele><time>2026-04-19T09:14:01.999Z</time></trkpt><trkpt lat="43.48096052433812" lon="10.570752275004567"><ele>276.0</ele><time>2026-04-19T09:14:02.999Z</time></trkpt><trkpt lat="43.481016462990105" lon="10.570647738042439"><ele>276.0</ele><time>2026-04-19T09:14:03.999Z</time></trkpt><trkpt lat="43.481069155332186" lon="10.57058772665362"><ele>276.0</ele><time>2026-04-19T09:14:05.999Z</time></trkpt><trkpt lat="43.48112811158193" lon="10.570548451428436"><ele>276.0</ele><time>2026-04-19T09:14:07.999Z</time></trkpt><trkpt lat="43.48123505314574" lon="10.570535852778844"><ele>276.0</ele><time>2026-04-19T09:14:10.999Z</time></trkpt><trkpt lat="43.481363125834385" lon="10.570544832941234"><ele>276.0</ele><time>2026-04-19T09:14:12.999Z</time></trkpt><trkpt lat="43.481427128156085" lon="10.57056607484989"><ele>276.0</ele><time>2026-04-19T09:14:13.999Z</time></trkpt><trkpt lat="43.481524347222745" lon="10.57055113491912"><ele>275.40000000000003</ele><time>2026-04-19T09:14:15.999Z</time></trkpt><trkpt lat="43.4815925360691" lon="10.570559900167694"><ele>274.8</ele><time>2026-04-19T09:14:17.999Z</time></trkpt><trkpt lat="43.48167999059006" lon="10.570585552698859"><ele>274.20000000000005</ele><time>2026-04-19T09:14:19.999Z</time></trkpt><trkpt lat="43.481763942686094" lon="10.570617743268597"><ele>273.6</ele><time>2026-04-19T09:14:21.999Z</time></trkpt><trkpt lat="43.48185533008304" lon="10.570601748138012"><ele>273.0</ele><time>2026-04-19T09:14:23.999Z</time></trkpt><trkpt lat="43.481951960908816" lon="10.570522565406385"><ele>273.0</ele><time>2026-04-19T09:14:25.999Z</time></trkpt><trkpt lat="43.482024966988604" lon="10.5704380374076"><ele>273.0</ele><time>2026-04-19T09:14:27.999Z</time></trkpt><trkpt lat="43.48208354869886" lon="10.570335751697064"><ele>273.0</ele><time>2026-04-19T09:14:29.999Z</time></trkpt><trkpt lat="43.48211821343027" lon="10.570234282679282"><ele>273.0</ele><time>2026-04-19T09:14:31.999Z</time></trkpt><trkpt lat="43.48216420191919" lon="10.570136790149474"><ele>273.0</ele><time>2026-04-19T09:14:33.999Z</time></trkpt><trkpt lat="43.48219222157756" lon="10.570043923141435"><ele>273.0</ele><time>2026-04-19T09:14:35.999Z</time></trkpt><trkpt lat="43.482205853334044" lon="10.569952418579996"><ele>272.75</ele><time>2026-04-19T09:14:38.999Z</time></trkpt><trkpt lat="43.48225946623641" lon="10.569897024772327"><ele>272.5</ele><time>2026-04-19T09:14:44.999Z</time></trkpt><trkpt lat="43.48222871360663" lon="10.569983197683678"><ele>272.25</ele><time>2026-04-19T09:14:48.999Z</time></trkpt><trkpt lat="43.48222458902053" lon="10.570261006778276"><ele>272.0</ele><time>2026-04-19T09:14:50.999Z</time></trkpt><trkpt lat="43.48221626071119" lon="10.570448852624816"><ele>272.0</ele><time>2026-04-19T09:14:51.999Z</time></trkpt><trkpt lat="43.482162654815916" lon="10.570658879023698"><ele>272.0</ele><time>2026-04-19T09:14:52.999Z</time></trkpt><trkpt lat="43.48211719132411" lon="10.570889178912239"><ele>272.0</ele><time>2026-04-19T09:14:53.999Z</time></trkpt><trkpt lat="43.48206868580565" lon="10.571125393519411"><ele>275.0</ele><time>2026-04-19T09:14:54.999Z</time></trkpt><trkpt lat="43.4820311192262" lon="10.57132558663815"><ele>278.0</ele><time>2026-04-19T09:14:55.999Z</time></trkpt><trkpt lat="43.4820156690335" lon="10.571498666367365"><ele>281.0</ele><time>2026-04-19T09:14:56.999Z</time></trkpt><trkpt lat="43.481985491861046" lon="10.571648055712759"><ele>284.0</ele><time>2026-04-19T09:14:57.999Z</time></trkpt><trkpt lat="43.48196586510468" lon="10.571793076191064"><ele>284.0</ele><time>2026-04-19T09:14:58.999Z</time></trkpt><trkpt lat="43.481951625756324" lon="10.57195022041459"><ele>284.0</ele><time>2026-04-19T09:14:59.999Z</time></trkpt><trkpt lat="43.48194213611249" lon="10.572106355520829"><ele>284.0</ele><time>2026-04-19T09:15:00.999Z</time></trkpt><trkpt lat="43.48193581706728" lon="10.572240133459854"><ele>284.0</ele><time>2026-04-19T09:15:01.999Z</time></trkpt><trkpt lat="43.481934284102934" lon="10.572353074809067"><ele>284.0</ele><time>2026-04-19T09:15:02.999Z</time></trkpt><trkpt lat="43.48192137471149" lon="10.572451361922047"><ele>285.42857142857144</ele><time>2026-04-19T09:15:03.999Z</time></trkpt><trkpt lat="43.48189059709353" lon="10.572553593415726"><ele>286.85714285714283</ele><time>2026-04-19T09:15:04.999Z</time></trkpt><trkpt lat="43.48186819417057" lon="10.572646693112487"><ele>288.2857142857143</ele><time>2026-04-19T09:15:05.999Z</time></trkpt><trkpt lat="43.481844798240544" lon="10.572732486804588"><ele>289.7142857142857</ele><time>2026-04-19T09:15:06.999Z</time></trkpt><trkpt lat="43.4818212764142" lon="10.57282028864521"><ele>291.1428571428571</ele><time>2026-04-19T09:15:07.999Z</time></trkpt><trkpt lat="43.481812907405455" lon="10.572925245806463"><ele>292.57142857142856</ele><time>2026-04-19T09:15:08.999Z</time></trkpt><trkpt lat="43.481821209552955" lon="10.57303879519954"><ele>294.0</ele><time>2026-04-19T09:15:09.999Z</time></trkpt><trkpt lat="43.48184000679235" lon="10.57318690832033"><ele>296.5</ele><time>2026-04-19T09:15:10.999Z</time></trkpt><trkpt lat="43.481864364573745" lon="10.573339398661386"><ele>299.0</ele><time>2026-04-19T09:15:11.999Z</time></trkpt><trkpt lat="43.481883106368755" lon="10.573439777463495"><ele>301.5</ele><time>2026-04-19T09:15:12.999Z</time></trkpt><trkpt lat="43.48189840066281" lon="10.57352917409453"><ele>304.0</ele><time>2026-04-19T09:15:13.999Z</time></trkpt><trkpt lat="43.48191016898035" lon="10.57363015573153"><ele>306.5</ele><time>2026-04-19T09:15:14.999Z</time></trkpt><trkpt lat="43.481918031565094" lon="10.573731061224382"><ele>309.0</ele><time>2026-04-19T09:15:15.999Z</time></trkpt><trkpt lat="43.48192674297711" lon="10.57383999667579"><ele>310.0</ele><time>2026-04-19T09:15:16.999Z</time></trkpt><trkpt lat="43.481906037851566" lon="10.573944858158967"><ele>311.0</ele><time>2026-04-19T09:15:17.999Z</time></trkpt><trkpt lat="43.48190313299146" lon="10.57405808007055"><ele>312.0</ele><time>2026-04-19T09:15:18.999Z</time></trkpt><trkpt lat="43.48190108973231" lon="10.574171334894194"><ele>313.0</ele><time>2026-04-19T09:15:19.999Z</time></trkpt><trkpt lat="43.481911472872895" lon="10.574300503585313"><ele>314.0</ele><time>2026-04-19T09:15:20.999Z</time></trkpt><trkpt lat="43.48191113982412" lon="10.57442566369037"><ele>315.0</ele><time>2026-04-19T09:15:21.999Z</time></trkpt><trkpt lat="43.48190404924134" lon="10.574551102042058"><ele>315.0</ele><time>2026-04-19T09:15:22.999Z</time></trkpt><trkpt lat="43.481897512276895" lon="10.574669954599907"><ele>315.0</ele><time>2026-04-19T09:15:23.999Z</time></trkpt><trkpt lat="43.481891240667736" lon="10.574787765226132"><ele>315.0</ele><time>2026-04-19T09:15:24.999Z</time></trkpt><trkpt lat="43.48187962843211" lon="10.57489185963967"><ele>315.0</ele><time>2026-04-19T09:15:25.999Z</time></trkpt><trkpt lat="43.48185446198581" lon="10.574981442050428"><ele>315.0</ele><time>2026-04-19T09:15:26.999Z</time></trkpt><trkpt lat="43.48182470820536" lon="10.575068303482496"><ele>315.0</ele><time>2026-04-19T09:15:27.999Z</time></trkpt><trkpt lat="43.48179460238765" lon="10.575150818230805"><ele>315.0</ele><time>2026-04-19T09:15:28.999Z</time></trkpt><trkpt lat="43.48175105783275" lon="10.575225339279651"><ele>315.0</ele><time>2026-04-19T09:15:29.999Z</time></trkpt><trkpt lat="43.48169820215448" lon="10.575292362263081"><ele>315.0</ele><time>2026-04-19T09:15:30.999Z</time></trkpt><trkpt lat="43.48162345602975" lon="10.575325744931185"><ele>315.0</ele><time>2026-04-19T09:15:31.999Z</time></trkpt><trkpt lat="43.48154168687007" lon="10.575372145020353"><ele>315.0</ele><time>2026-04-19T09:15:32.999Z</time></trkpt><trkpt lat="43.48146587339568" lon="10.575423026084366"><ele>315.0</ele><time>2026-04-19T09:15:33.999Z</time></trkpt><trkpt lat="43.48140645866525" lon="10.575489700447887"><ele>315.85714285714283</ele><time>2026-04-19T09:15:34.999Z</time></trkpt><trkpt lat="43.48134062391145" lon="10.575520195761966"><ele>316.7142857142857</ele><time>2026-04-19T09:15:35.999Z</time></trkpt><trkpt lat="43.481282657201895" lon="10.575574115247214"><ele>317.57142857142856</ele><time>2026-04-19T09:15:36.999Z</time></trkpt><trkpt lat="43.48122847846637" lon="10.5756268038984"><ele>318.42857142857144</ele><time>2026-04-19T09:15:37.999Z</time></trkpt><trkpt lat="43.481172896901356" lon="10.575682159351832"><ele>319.2857142857143</ele><time>2026-04-19T09:15:38.999Z</time></trkpt><trkpt lat="43.48112047007102" lon="10.575736401190152"><ele>320.1428571428571</ele><time>2026-04-19T09:15:39.999Z</time></trkpt><trkpt lat="43.48107836001791" lon="10.575802404362657"><ele>321.0</ele><time>2026-04-19T09:15:40.999Z</time></trkpt><trkpt lat="43.480980159802996" lon="10.575868666570765"><ele>321.0</ele><time>2026-04-19T09:15:42.999Z</time></trkpt><trkpt lat="43.48088037948222" lon="10.575917232041828"><ele>321.0</ele><time>2026-04-19T09:15:44.999Z</time></trkpt><trkpt lat="43.48079150712891" lon="10.575903443720087"><ele>321.0</ele><time>2026-04-19T09:15:46.999Z</time></trkpt><trkpt lat="43.4807267099938" lon="10.575842405261199"><ele>321.0</ele><time>2026-04-19T09:15:48.999Z</time></trkpt><trkpt lat="43.48066018641539" lon="10.575776596497388"><ele>321.0</ele><time>2026-04-19T09:15:50.999Z</time></trkpt><trkpt lat="43.480579384720265" lon="10.575677877944111"><ele>321.0</ele><time>2026-04-19T09:15:52.999Z</time></trkpt><trkpt lat="43.48047630044239" lon="10.575651887177635"><ele>321.0</ele><time>2026-04-19T09:15:54.999Z</time></trkpt><trkpt lat="43.4803367892538" lon="10.575644507478279"><ele>321.0</ele><time>2026-04-19T09:15:56.999Z</time></trkpt><trkpt lat="43.480202002945475" lon="10.575657150568134"><ele>321.0</ele><time>2026-04-19T09:15:58.999Z</time></trkpt><trkpt lat="43.48008421136921" lon="10.5756942903036"><ele>324.8</ele><time>2026-04-19T09:16:00.999Z</time></trkpt><trkpt lat="43.47997797763602" lon="10.575718390486475"><ele>328.6</ele><time>2026-04-19T09:16:02.999Z</time></trkpt><trkpt lat="43.47988770992958" lon="10.575714816658829"><ele>332.4</ele><time>2026-04-19T09:16:04.999Z</time></trkpt><trkpt lat="43.479804182114144" lon="10.575644687661763"><ele>336.2</ele><time>2026-04-19T09:16:06.999Z</time></trkpt><trkpt lat="43.47970709060813" lon="10.575556335743103"><ele>340.0</ele><time>2026-04-19T09:16:08.999Z</time></trkpt><trkpt lat="43.47966856071653" lon="10.575471108225472"><ele>340.0</ele><time>2026-04-19T09:16:09.999Z</time></trkpt><trkpt lat="43.479609435419896" lon="10.575402250085986"><ele>340.0</ele><time>2026-04-19T09:16:10.999Z</time></trkpt><trkpt lat="43.479539509372465" lon="10.575356120522182"><ele>340.0</ele><time>2026-04-19T09:16:11.999Z</time></trkpt><trkpt lat="43.479412887377535" lon="10.575317789879444"><ele>340.0</ele><time>2026-04-19T09:16:13.999Z</time></trkpt><trkpt lat="43.47925842472175" lon="10.575334726859285"><ele>340.0</ele><time>2026-04-19T09:16:15.999Z</time></trkpt><trkpt lat="43.4791741006083" lon="10.575366094268214"><ele>341.8</ele><time>2026-04-19T09:16:16.999Z</time></trkpt><trkpt lat="43.479082187548265" lon="10.57536263043668"><ele>343.6</ele><time>2026-04-19T09:16:17.999Z</time></trkpt><trkpt lat="43.478972146519126" lon="10.575386223622314"><ele>345.4</ele><time>2026-04-19T09:16:18.999Z</time></trkpt><trkpt lat="43.478882669068526" lon="10.575381192220547"><ele>347.2</ele><time>2026-04-19T09:16:19.999Z</time></trkpt><trkpt lat="43.47879830050263" lon="10.575405263857697"><ele>349.0</ele><time>2026-04-19T09:16:20.999Z</time></trkpt><trkpt lat="43.47872680798908" lon="10.575428533902631"><ele>349.5</ele><time>2026-04-19T09:16:21.999Z</time></trkpt><trkpt lat="43.47865351429942" lon="10.575472895073313"><ele>350.0</ele><time>2026-04-19T09:16:22.999Z</time></trkpt><trkpt lat="43.478582398003205" lon="10.575528131154861"><ele>350.5</ele><time>2026-04-19T09:16:23.999Z</time></trkpt><trkpt lat="43.478519829151985" lon="10.5756022337319"><ele>351.0</ele><time>2026-04-19T09:16:24.999Z</time></trkpt><trkpt lat="43.47846228005243" lon="10.575692717746337"><ele>351.5</ele><time>2026-04-19T09:16:25.999Z</time></trkpt><trkpt lat="43.478394744057624" lon="10.575780067660842"><ele>352.0</ele><time>2026-04-19T09:16:26.999Z</time></trkpt><trkpt lat="43.47833883515549" lon="10.575882164005495"><ele>352.0</ele><time>2026-04-19T09:16:27.999Z</time></trkpt><trkpt lat="43.47827101158713" lon="10.575979541461672"><ele>352.0</ele><time>2026-04-19T09:16:28.999Z</time></trkpt><trkpt lat="43.47819468045757" lon="10.576056030347862"><ele>352.0</ele><time>2026-04-19T09:16:29.999Z</time></trkpt><trkpt lat="43.47811216771468" lon="10.576136541654497"><ele>352.0</ele><time>2026-04-19T09:16:30.999Z</time></trkpt><trkpt lat="43.47802516397753" lon="10.57619134041921"><ele>352.0</ele><time>2026-04-19T09:16:31.999Z</time></trkpt><trkpt lat="43.4779544760973" lon="10.576267574400195"><ele>351.66666666666663</ele><time>2026-04-19T09:16:32.999Z</time></trkpt><trkpt lat="43.47789786007467" lon="10.576368341279062"><ele>351.3333333333333</ele><time>2026-04-19T09:16:33.999Z</time></trkpt><trkpt lat="43.47782690195202" lon="10.576461618595392"><ele>351.0</ele><time>2026-04-19T09:16:34.999Z</time></trkpt><trkpt lat="43.47776246920657" lon="10.576534332750219"><ele>350.6666666666667</ele><time>2026-04-19T09:16:35.999Z</time></trkpt><trkpt lat="43.47770068238929" lon="10.576616950237273"><ele>350.33333333333337</ele><time>2026-04-19T09:16:36.999Z</time></trkpt><trkpt lat="43.47764149380283" lon="10.576702901803793"><ele>350.0</ele><time>2026-04-19T09:16:37.999Z</time></trkpt><trkpt lat="43.47758172501172" lon="10.57677771022751"><ele>350.0</ele><time>2026-04-19T09:16:38.999Z</time></trkpt><trkpt lat="43.47752692723217" lon="10.576836372493299"><ele>350.0</ele><time>2026-04-19T09:16:39.999Z</time></trkpt><trkpt lat="43.47744690500139" lon="10.576963971151663"><ele>350.0</ele><time>2026-04-19T09:16:41.999Z</time></trkpt><trkpt lat="43.47739467142655" lon="10.577097001141361"><ele>350.0</ele><time>2026-04-19T09:16:43.999Z</time></trkpt><trkpt lat="43.47737943122908" lon="10.577226249360338"><ele>350.0</ele><time>2026-04-19T09:16:45.999Z</time></trkpt><trkpt lat="43.477337753103136" lon="10.577342038449194"><ele>350.2</ele><time>2026-04-19T09:16:47.999Z</time></trkpt><trkpt lat="43.47730337509823" lon="10.577511527558707"><ele>350.4</ele><time>2026-04-19T09:16:49.999Z</time></trkpt><trkpt lat="43.47728363306229" lon="10.577608293199495"><ele>350.6</ele><time>2026-04-19T09:16:50.999Z</time></trkpt><trkpt lat="43.47726730294108" lon="10.577695991944374"><ele>350.8</ele><time>2026-04-19T09:16:51.999Z</time></trkpt><trkpt lat="43.477243789406444" lon="10.577851436428613"><ele>351.0</ele><time>2026-04-19T09:16:53.999Z</time></trkpt><trkpt lat="43.47719852808592" lon="10.578004607488941"><ele>351.0</ele><time>2026-04-19T09:16:55.999Z</time></trkpt><trkpt lat="43.47717854933539" lon="10.57809231559979"><ele>351.0</ele><time>2026-04-19T09:16:56.999Z</time></trkpt><trkpt lat="43.47715915978887" lon="10.578198878749049"><ele>351.0</ele><time>2026-04-19T09:16:57.999Z</time></trkpt><trkpt lat="43.477134173090626" lon="10.578300670016482"><ele>351.0</ele><time>2026-04-19T09:16:58.999Z</time></trkpt><trkpt lat="43.47709797331335" lon="10.578379445633649"><ele>351.0</ele><time>2026-04-19T09:16:59.999Z</time></trkpt><trkpt lat="43.47708142467067" lon="10.578483804387487"><ele>351.0</ele><time>2026-04-19T09:17:00.999Z</time></trkpt><trkpt lat="43.47707590870976" lon="10.578643239941378"><ele>349.8</ele><time>2026-04-19T09:17:02.999Z</time></trkpt><trkpt lat="43.47708241927215" lon="10.578802685303657"><ele>348.6</ele><time>2026-04-19T09:17:04.999Z</time></trkpt><trkpt lat="43.47707824316389" lon="10.5788939573633"><ele>347.4</ele><time>2026-04-19T09:17:05.999Z</time></trkpt><trkpt lat="43.477066631956994" lon="10.578990348280609"><ele>346.2</ele><time>2026-04-19T09:17:06.999Z</time></trkpt><trkpt lat="43.47703958319326" lon="10.579081178978845"><ele>345.0</ele><time>2026-04-19T09:17:07.999Z</time></trkpt><trkpt lat="43.47697803777331" lon="10.579236656017406"><ele>345.0</ele><time>2026-04-19T09:17:09.999Z</time></trkpt><trkpt lat="43.47695319620298" lon="10.579324939949588"><ele>345.0</ele><time>2026-04-19T09:17:10.999Z</time></trkpt><trkpt lat="43.476926984037604" lon="10.579418718402824"><ele>345.0</ele><time>2026-04-19T09:17:11.999Z</time></trkpt><trkpt lat="43.476904289923205" lon="10.579500267385347"><ele>345.0</ele><time>2026-04-19T09:17:12.999Z</time></trkpt><trkpt lat="43.47687957801796" lon="10.579655924093977"><ele>345.0</ele><time>2026-04-19T09:17:14.999Z</time></trkpt><trkpt lat="43.47687682061196" lon="10.579822298568509"><ele>345.0</ele><time>2026-04-19T09:17:16.999Z</time></trkpt><trkpt lat="43.476878557171446" lon="10.579918461323238"><ele>345.1666666666667</ele><time>2026-04-19T09:17:17.999Z</time></trkpt><trkpt lat="43.47688185913365" lon="10.580016458230368"><ele>345.3333333333333</ele><time>2026-04-19T09:17:18.999Z</time></trkpt><trkpt lat="43.47688208473879" lon="10.58010624973145"><ele>345.5</ele><time>2026-04-19T09:17:19.999Z</time></trkpt><trkpt lat="43.47687620628355" lon="10.58027857365059"><ele>345.66666666666663</ele><time>2026-04-19T09:17:21.999Z</time></trkpt><trkpt lat="43.47688820928574" lon="10.580369075524358"><ele>345.8333333333333</ele><time>2026-04-19T09:17:22.999Z</time></trkpt><trkpt lat="43.4768413116532" lon="10.580496748826347"><ele>346.0</ele><time>2026-04-19T09:17:24.999Z</time></trkpt><trkpt lat="43.47682063129539" lon="10.580630352846557"><ele>346.6</ele><time>2026-04-19T09:17:26.999Z</time></trkpt><trkpt lat="43.47680670519822" lon="10.580781414422132"><ele>347.20000000000005</ele><time>2026-04-19T09:17:29Z</time></trkpt><trkpt lat="43.47680055832491" lon="10.580883545908819"><ele>347.79999999999995</ele><time>2026-04-19T09:17:30Z</time></trkpt><trkpt lat="43.47680761708425" lon="10.58106626273454"><ele>348.4</ele><time>2026-04-19T09:17:32Z</time></trkpt><trkpt lat="43.47682018903596" lon="10.581235758651024"><ele>349.0</ele><time>2026-04-19T09:17:34Z</time></trkpt><trkpt lat="43.4768295931515" lon="10.581337835127787"><ele>349.2</ele><time>2026-04-19T09:17:35Z</time></trkpt><trkpt lat="43.47684243605013" lon="10.581455486208476"><ele>349.4</ele><time>2026-04-19T09:17:37Z</time></trkpt><trkpt lat="43.476852948850826" lon="10.581546887459501"><ele>349.6</ele><time>2026-04-19T09:17:38Z</time></trkpt><trkpt lat="43.47687265148041" lon="10.581712737923445"><ele>349.8</ele><time>2026-04-19T09:17:40Z</time></trkpt><trkpt lat="43.47688901260121" lon="10.581850460915854"><ele>350.0</ele><time>2026-04-19T09:17:42Z</time></trkpt><trkpt lat="43.47690476697678" lon="10.582003446697204"><ele>351.2</ele><time>2026-04-19T09:17:44Z</time></trkpt><trkpt lat="43.476913372280244" lon="10.582181107075677"><ele>352.4</ele><time>2026-04-19T09:17:46Z</time></trkpt><trkpt lat="43.476917463445744" lon="10.582274391000203"><ele>353.6</ele><time>2026-04-19T09:17:47Z</time></trkpt><trkpt lat="43.476893554329536" lon="10.582424433981448"><ele>354.8</ele><time>2026-04-19T09:17:50Z</time></trkpt><trkpt lat="43.476874194556316" lon="10.5825418193046"><ele>356.0</ele><time>2026-04-19T09:17:52Z</time></trkpt><trkpt lat="43.47683160128933" lon="10.58270549345327"><ele>386.0</ele><time>2026-04-19T09:17:54Z</time></trkpt><trkpt lat="43.47742601748978" lon="10.583094685655041"><ele>385.99999999999994</ele><time>2026-04-19T09:17:55Z</time></trkpt><trkpt lat="43.477443397937925" lon="10.583209479898173"><ele>386.0</ele><time>2026-04-19T09:17:56Z</time></trkpt><trkpt lat="43.47745461434277" lon="10.583318149345018"><ele>386.0</ele><time>2026-04-19T09:17:57Z</time></trkpt><trkpt lat="43.4774726241752" lon="10.583445642690156"><ele>386.0</ele><time>2026-04-19T09:17:58Z</time></trkpt><trkpt lat="43.47748281782181" lon="10.583550606823563"><ele>385.99999999999994</ele><time>2026-04-19T09:17:59Z</time></trkpt><trkpt lat="43.47750114457973" lon="10.583659032773557"><ele>386.0</ele><time>2026-04-19T09:18:00Z</time></trkpt><trkpt lat="43.47751190252156" lon="10.583761666141951"><ele>386.99999999999994</ele><time>2026-04-19T09:18:01Z</time></trkpt><trkpt lat="43.47752083945115" lon="10.583858883606636"><ele>388.0</ele><time>2026-04-19T09:18:01.999Z</time></trkpt><trkpt lat="43.47752018544337" lon="10.58395181821423"><ele>389.0</ele><time>2026-04-19T09:18:02.999Z</time></trkpt><trkpt lat="43.47753693217177" lon="10.584077989982763"><ele>390.0</ele><time>2026-04-19T09:18:03.999Z</time></trkpt><trkpt lat="43.477541898422395" lon="10.584193141982873"><ele>390.99999999999994</ele><time>2026-04-19T09:18:04.999Z</time></trkpt><trkpt lat="43.477534627337185" lon="10.584307310292164"><ele>392.0</ele><time>2026-04-19T09:18:05.999Z</time></trkpt><trkpt lat="43.477537346434616" lon="10.584412629770442"><ele>393.49999999999994</ele><time>2026-04-19T09:18:06.999Z</time></trkpt><trkpt lat="43.47754035889296" lon="10.584521806743865"><ele>395.0</ele><time>2026-04-19T09:18:07.999Z</time></trkpt><trkpt lat="43.477545594308225" lon="10.584623133446794"><ele>396.5</ele><time>2026-04-19T09:18:08.999Z</time></trkpt><trkpt lat="43.47754773790667" lon="10.584726695522068"><ele>398.0</ele><time>2026-04-19T09:18:09.999Z</time></trkpt><trkpt lat="43.47754539112975" lon="10.584822977109852"><ele>399.49999999999994</ele><time>2026-04-19T09:18:10.999Z</time></trkpt><trkpt lat="43.47754373584657" lon="10.584917248096891"><ele>401.0</ele><time>2026-04-19T09:18:11.999Z</time></trkpt><trkpt lat="43.477529084259515" lon="10.585092611512875"><ele>400.99999999999994</ele><time>2026-04-19T09:18:13.999Z</time></trkpt><trkpt lat="43.47750745575773" lon="10.585186457163067"><ele>401.0</ele><time>2026-04-19T09:18:14.999Z</time></trkpt><trkpt lat="43.47747926015605" lon="10.58527913585368"><ele>401.0</ele><time>2026-04-19T09:18:15.999Z</time></trkpt><trkpt lat="43.47745293123098" lon="10.585368127031623"><ele>401.0</ele><time>2026-04-19T09:18:16.999Z</time></trkpt><trkpt lat="43.47742405776744" lon="10.58546310387244"><ele>400.99999999999994</ele><time>2026-04-19T09:18:17.999Z</time></trkpt><trkpt lat="43.477386876936045" lon="10.585638313788225"><ele>401.0</ele><time>2026-04-19T09:18:19.999Z</time></trkpt><trkpt lat="43.47738734409701" lon="10.585735953694773"><ele>402.57142857142856</ele><time>2026-04-19T09:18:20.999Z</time></trkpt><trkpt lat="43.47738953414018" lon="10.585831030724902"><ele>404.14285714285717</ele><time>2026-04-19T09:18:21.999Z</time></trkpt><trkpt lat="43.47739682791243" lon="10.585924954675463"><ele>405.71428571428567</ele><time>2026-04-19T09:18:22.999Z</time></trkpt><trkpt lat="43.4774052004495" lon="10.586011497283629"><ele>407.2857142857143</ele><time>2026-04-19T09:18:23.999Z</time></trkpt><trkpt lat="43.47743171173976" lon="10.58610617950449"><ele>408.85714285714283</ele><time>2026-04-19T09:18:24.999Z</time></trkpt><trkpt lat="43.477454310068694" lon="10.586216188650273"><ele>410.4285714285714</ele><time>2026-04-19T09:18:25.999Z</time></trkpt><trkpt lat="43.47748310224817" lon="10.58632223795531"><ele>412.0</ele><time>2026-04-19T09:18:26.999Z</time></trkpt><trkpt lat="43.47751098249216" lon="10.586423532406924"><ele>413.33333333333337</ele><time>2026-04-19T09:18:27.999Z</time></trkpt><trkpt lat="43.47754422361372" lon="10.586543824872017"><ele>414.6666666666667</ele><time>2026-04-19T09:18:28.999Z</time></trkpt><trkpt lat="43.477576371415125" lon="10.586673679180022"><ele>416.0</ele><time>2026-04-19T09:18:29.999Z</time></trkpt><trkpt lat="43.4775928357731" lon="10.586797370814958"><ele>417.33333333333337</ele><time>2026-04-19T09:18:30.999Z</time></trkpt><trkpt lat="43.47763017071011" lon="10.58691975104412"><ele>418.6666666666667</ele><time>2026-04-19T09:18:31.999Z</time></trkpt><trkpt lat="43.47764376167495" lon="10.587006256019746"><ele>420.0</ele><time>2026-04-19T09:18:32.999Z</time></trkpt><trkpt lat="43.47766075310097" lon="10.58719152276783"><ele>421.1666666666667</ele><time>2026-04-19T09:18:34.999Z</time></trkpt><trkpt lat="43.477703067146045" lon="10.587362573620448"><ele>422.33333333333337</ele><time>2026-04-19T09:18:36.999Z</time></trkpt><trkpt lat="43.47772126616286" lon="10.587451834974413"><ele>423.5</ele><time>2026-04-19T09:18:37.999Z</time></trkpt><trkpt lat="43.4777285459657" lon="10.587554452990949"><ele>424.6666666666667</ele><time>2026-04-19T09:18:38.999Z</time></trkpt><trkpt lat="43.477724239364576" lon="10.587657949922033"><ele>425.83333333333337</ele><time>2026-04-19T09:18:39.999Z</time></trkpt><trkpt lat="43.47771980198745" lon="10.587763464642677"><ele>427.0</ele><time>2026-04-19T09:18:40.999Z</time></trkpt><trkpt lat="43.477713842001506" lon="10.587860704458793"><ele>428.20000000000005</ele><time>2026-04-19T09:18:41.999Z</time></trkpt><trkpt lat="43.47775786348359" lon="10.588015878642533"><ele>429.40000000000003</ele><time>2026-04-19T09:18:43.999Z</time></trkpt><trkpt lat="43.477820547946166" lon="10.588080777792966"><ele>430.59999999999997</ele><time>2026-04-19T09:18:44.999Z</time></trkpt><trkpt lat="43.47789895773449" lon="10.588136746644489"><ele>431.79999999999995</ele><time>2026-04-19T09:18:45.999Z</time></trkpt><trkpt lat="43.478000522028964" lon="10.588208484700223"><ele>433.0</ele><time>2026-04-19T09:18:46.999Z</time></trkpt><trkpt lat="43.478113703613346" lon="10.588261779624036"><ele>433.00000000000006</ele><time>2026-04-19T09:18:47.999Z</time></trkpt><trkpt lat="43.47818922386771" lon="10.588310947982304"><ele>433.0</ele><time>2026-04-19T09:18:48.999Z</time></trkpt><trkpt lat="43.478233660616084" lon="10.588377404517567"><ele>433.0</ele><time>2026-04-19T09:18:49.999Z</time></trkpt><trkpt lat="43.478257220995346" lon="10.588472764155073"><ele>433.0</ele><time>2026-04-19T09:18:50.999Z</time></trkpt><trkpt lat="43.478270887504046" lon="10.588581378661337"><ele>433.00000000000006</ele><time>2026-04-19T09:18:51.999Z</time></trkpt><trkpt lat="43.478281242486744" lon="10.588726260062325"><ele>433.0</ele><time>2026-04-19T09:18:52.999Z</time></trkpt><trkpt lat="43.47828954995185" lon="10.588891387087562"><ele>435.5</ele><time>2026-04-19T09:18:53.999Z</time></trkpt><trkpt lat="43.478288217442966" lon="10.589062064393675"><ele>438.0</ele><time>2026-04-19T09:18:54.999Z</time></trkpt><trkpt lat="43.47829488748049" lon="10.589224905569889"><ele>440.5</ele><time>2026-04-19T09:18:55.999Z</time></trkpt><trkpt lat="43.47830751428175" lon="10.589383235663037"><ele>443.0</ele><time>2026-04-19T09:18:56.999Z</time></trkpt><trkpt lat="43.47830488360607" lon="10.589512347486215"><ele>445.3333333333333</ele><time>2026-04-19T09:18:57.999Z</time></trkpt><trkpt lat="43.47829835741321" lon="10.589633471799997"><ele>447.66666666666663</ele><time>2026-04-19T09:18:58.999Z</time></trkpt><trkpt lat="43.478291859274314" lon="10.589746441153192"><ele>450.0</ele><time>2026-04-19T09:18:59.999Z</time></trkpt><trkpt lat="43.47828189909163" lon="10.589884309215659"><ele>452.33333333333337</ele><time>2026-04-19T09:19:00.999Z</time></trkpt><trkpt lat="43.478272741213836" lon="10.590012426775141"><ele>454.6666666666667</ele><time>2026-04-19T09:19:01.999Z</time></trkpt><trkpt lat="43.478271141849355" lon="10.590129772479555"><ele>457.0</ele><time>2026-04-19T09:19:02.999Z</time></trkpt><trkpt lat="43.47825561983158" lon="10.590248358401949"><ele>458.40000000000003</ele><time>2026-04-19T09:19:03.999Z</time></trkpt><trkpt lat="43.478239977426455" lon="10.590360565945382"><ele>459.80000000000007</ele><time>2026-04-19T09:19:04.999Z</time></trkpt><trkpt lat="43.478210941386756" lon="10.59048570746294"><ele>461.2</ele><time>2026-04-19T09:19:05.999Z</time></trkpt><trkpt lat="43.47817508064954" lon="10.590610043873037"><ele>462.6</ele><time>2026-04-19T09:19:06.999Z</time></trkpt><trkpt lat="43.47812944522269" lon="10.590731828400399"><ele>464.0</ele><time>2026-04-19T09:19:07.999Z</time></trkpt><trkpt lat="43.47809678996513" lon="10.590853151632553"><ele>463.99999999999994</ele><time>2026-04-19T09:19:08.999Z</time></trkpt><trkpt lat="43.478077479931436" lon="10.59096965635927"><ele>464.0</ele><time>2026-04-19T09:19:09.999Z</time></trkpt><trkpt lat="43.478069379887614" lon="10.591077092265655"><ele>464.0</ele><time>2026-04-19T09:19:10.999Z</time></trkpt><trkpt lat="43.478048451039115" lon="10.59118927295825"><ele>464.0</ele><time>2026-04-19T09:19:11.999Z</time></trkpt><trkpt lat="43.478030661994396" lon="10.591293468187109"><ele>463.99999999999994</ele><time>2026-04-19T09:19:12.999Z</time></trkpt><trkpt lat="43.478010875182996" lon="10.591401719410502"><ele>464.0</ele><time>2026-04-19T09:19:13.999Z</time></trkpt><trkpt lat="43.47798577510662" lon="10.59150157193039"><ele>465.49999999999994</ele><time>2026-04-19T09:19:14.999Z</time></trkpt><trkpt lat="43.47796202897521" lon="10.591600596106126"><ele>467.0</ele><time>2026-04-19T09:19:15.999Z</time></trkpt><trkpt lat="43.477941270920184" lon="10.591714414198275"><ele>468.5</ele><time>2026-04-19T09:19:16.999Z</time></trkpt><trkpt lat="43.4779164575374" lon="10.591824584043415"><ele>470.0</ele><time>2026-04-19T09:19:17.999Z</time></trkpt><trkpt lat="43.47789142799702" lon="10.59193970302488"><ele>471.49999999999994</ele><time>2026-04-19T09:19:19Z</time></trkpt><trkpt lat="43.477850727062474" lon="10.592036910449831"><ele>473.0</ele><time>2026-04-19T09:19:20Z</time></trkpt><trkpt lat="43.47781905507918" lon="10.592148965146958"><ele>477.59999999999997</ele><time>2026-04-19T09:19:21Z</time></trkpt><trkpt lat="43.477770226619214" lon="10.592256627713352"><ele>482.19999999999993</ele><time>2026-04-19T09:19:22Z</time></trkpt><trkpt lat="43.477695146755764" lon="10.592355977144654"><ele>486.8</ele><time>2026-04-19T09:19:23Z</time></trkpt><trkpt lat="43.47760091686599" lon="10.592470877892296"><ele>491.4</ele><time>2026-04-19T09:19:24Z</time></trkpt><trkpt lat="43.4775257418488" lon="10.59256715786714"><ele>496.0</ele><time>2026-04-19T09:19:25Z</time></trkpt><trkpt lat="43.477473681381056" lon="10.592639350130476"><ele>496.0</ele><time>2026-04-19T09:19:26Z</time></trkpt><trkpt lat="43.47742987008838" lon="10.592717921236245"><ele>496.0</ele><time>2026-04-19T09:19:27Z</time></trkpt><trkpt lat="43.477385312028815" lon="10.59280647232966"><ele>496.0</ele><time>2026-04-19T09:19:28Z</time></trkpt><trkpt lat="43.47735232639534" lon="10.592881176020683"><ele>496.0</ele><time>2026-04-19T09:19:29Z</time></trkpt><trkpt lat="43.47730281887545" lon="10.593026186100598"><ele>496.0</ele><time>2026-04-19T09:19:31Z</time></trkpt><trkpt lat="43.477272211267646" lon="10.593188527668465"><ele>496.6666666666667</ele><time>2026-04-19T09:19:33Z</time></trkpt><trkpt lat="43.47725315931897" lon="10.593298884413173"><ele>497.33333333333337</ele><time>2026-04-19T09:19:34Z</time></trkpt><trkpt lat="43.477247232837506" lon="10.59339346880562"><ele>498.0</ele><time>2026-04-19T09:19:35Z</time></trkpt><trkpt lat="43.47724428103601" lon="10.593563940711151"><ele>498.66666666666663</ele><time>2026-04-19T09:19:37Z</time></trkpt><trkpt lat="43.47725447384311" lon="10.593655052681905"><ele>499.3333333333333</ele><time>2026-04-19T09:19:38Z</time></trkpt><trkpt lat="43.477274849597684" lon="10.5937593733324"><ele>500.0</ele><time>2026-04-19T09:19:39Z</time></trkpt><trkpt lat="43.477299702145594" lon="10.59387160608981"><ele>501.4</ele><time>2026-04-19T09:19:40Z</time></trkpt><trkpt lat="43.477325803849546" lon="10.593985871300593"><ele>502.8</ele><time>2026-04-19T09:19:41Z</time></trkpt><trkpt lat="43.47735160821411" lon="10.594108973310634"><ele>504.20000000000005</ele><time>2026-04-19T09:19:42Z</time></trkpt><trkpt lat="43.477406382919675" lon="10.594250054702075"><ele>505.6</ele><time>2026-04-19T09:19:43Z</time></trkpt><trkpt lat="43.477442036948155" lon="10.59436470985971"><ele>507.0</ele><time>2026-04-19T09:19:44Z</time></trkpt><trkpt lat="43.477465542136116" lon="10.594463682960805"><ele>508.8333333333333</ele><time>2026-04-19T09:19:45Z</time></trkpt><trkpt lat="43.47748710880825" lon="10.594561165367308"><ele>510.66666666666663</ele><time>2026-04-19T09:19:46Z</time></trkpt><trkpt lat="43.477495734634516" lon="10.594664292462845"><ele>512.5</ele><time>2026-04-19T09:19:47Z</time></trkpt><trkpt lat="43.47749416666825" lon="10.5947748604754"><ele>514.3333333333333</ele><time>2026-04-19T09:19:48Z</time></trkpt><trkpt lat="43.47748566588315" lon="10.594884845010792"><ele>516.1666666666666</ele><time>2026-04-19T09:19:49Z</time></trkpt><trkpt lat="43.47748180575626" lon="10.595002963576587"><ele>518.0</ele><time>2026-04-19T09:19:50Z</time></trkpt><trkpt lat="43.4774743274674" lon="10.595089898354438"><ele>518.0</ele><time>2026-04-19T09:19:51Z</time></trkpt><trkpt lat="43.47745685601334" lon="10.595195504635745"><ele>518.0</ele><time>2026-04-19T09:19:52.999Z</time></trkpt><trkpt lat="43.477393579171626" lon="10.595279959890242"><ele>518.0</ele><time>2026-04-19T09:19:54.999Z</time></trkpt><trkpt lat="43.47735646042361" lon="10.595352003994424"><ele>518.0</ele><time>2026-04-19T09:19:56.999Z</time></trkpt><trkpt lat="43.47730856276272" lon="10.595412131397486"><ele>518.0</ele><time>2026-04-19T09:19:59.999Z</time></trkpt><trkpt lat="43.47729664129005" lon="10.59549813785511"><ele>518.0</ele><time>2026-04-19T09:20:03.999Z</time></trkpt><trkpt lat="43.47735443265597" lon="10.595578654802988"><ele>518.0</ele><time>2026-04-19T09:20:30.999Z</time></trkpt><trkpt lat="43.477424250283455" lon="10.595694905213792"><ele>518.5</ele><time>2026-04-19T09:20:33.999Z</time></trkpt><trkpt lat="43.47747028564429" lon="10.595775523478425"><ele>519.0</ele><time>2026-04-19T09:20:34.999Z</time></trkpt><trkpt lat="43.47751440212243" lon="10.595867435319164"><ele>519.5</ele><time>2026-04-19T09:20:35.999Z</time></trkpt><trkpt lat="43.47756250998306" lon="10.595987400386521"><ele>520.0</ele><time>2026-04-19T09:20:36.999Z</time></trkpt><trkpt lat="43.47761704732296" lon="10.596113337030818"><ele>520.5</ele><time>2026-04-19T09:20:37.999Z</time></trkpt><trkpt lat="43.477662595122226" lon="10.59621718154081"><ele>521.0</ele><time>2026-04-19T09:20:38.999Z</time></trkpt><trkpt lat="43.47770451305705" lon="10.596322323356723"><ele>522.0</ele><time>2026-04-19T09:20:39.999Z</time></trkpt><trkpt lat="43.47774913480434" lon="10.596435683541376"><ele>523.0</ele><time>2026-04-19T09:20:40.999Z</time></trkpt><trkpt lat="43.477797163047825" lon="10.596551550812546"><ele>524.0</ele><time>2026-04-19T09:20:41.999Z</time></trkpt><trkpt lat="43.47784076354024" lon="10.596647797689814"><ele>525.0</ele><time>2026-04-19T09:20:42.999Z</time></trkpt><trkpt lat="43.47788144766788" lon="10.59673653944228"><ele>526.0</ele><time>2026-04-19T09:20:43.999Z</time></trkpt><trkpt lat="43.477919102849775" lon="10.596816445427795"><ele>527.0</ele><time>2026-04-19T09:20:44.999Z</time></trkpt><trkpt lat="43.477953832763575" lon="10.596897180667996"><ele>527.0000000000001</ele><time>2026-04-19T09:20:45.999Z</time></trkpt><trkpt lat="43.47800110267531" lon="10.596975812565145"><ele>527.0</ele><time>2026-04-19T09:20:46.999Z</time></trkpt><trkpt lat="43.478055151136715" lon="10.597038910135458"><ele>527.0</ele><time>2026-04-19T09:20:47.999Z</time></trkpt><trkpt lat="43.47811092021789" lon="10.597095428307558"><ele>527.0</ele><time>2026-04-19T09:20:48.999Z</time></trkpt><trkpt lat="43.47817122543107" lon="10.597150124895306"><ele>527.0</ele><time>2026-04-19T09:20:49.999Z</time></trkpt><trkpt lat="43.478235373783015" lon="10.597206663836348"><ele>527.0000000000001</ele><time>2026-04-19T09:20:50.999Z</time></trkpt><trkpt lat="43.4782994150555" lon="10.597264862761682"><ele>527.0</ele><time>2026-04-19T09:20:51.999Z</time></trkpt><trkpt lat="43.478359496524995" lon="10.597338078063697"><ele>526.8333333333333</ele><time>2026-04-19T09:20:52.999Z</time></trkpt><trkpt lat="43.47840735808212" lon="10.597427597114674"><ele>526.6666666666666</ele><time>2026-04-19T09:20:53.999Z</time></trkpt><trkpt lat="43.478458960793624" lon="10.597523057351856"><ele>526.5</ele><time>2026-04-19T09:20:54.999Z</time></trkpt><trkpt lat="43.478508910653375" lon="10.597625961180272"><ele>526.3333333333334</ele><time>2026-04-19T09:20:55.999Z</time></trkpt><trkpt lat="43.47855161662838" lon="10.59774083315204"><ele>526.1666666666667</ele><time>2026-04-19T09:20:56.999Z</time></trkpt><trkpt lat="43.478593806256576" lon="10.597860156225655"><ele>526.0</ele><time>2026-04-19T09:20:57.999Z</time></trkpt><trkpt lat="43.47863556038324" lon="10.59798381828854"><ele>525.0</ele><time>2026-04-19T09:20:58.999Z</time></trkpt><trkpt lat="43.47866860856654" lon="10.598117270919253"><ele>524.0</ele><time>2026-04-19T09:20:59.999Z</time></trkpt><trkpt lat="43.47870748822026" lon="10.598245102078184"><ele>523.0</ele><time>2026-04-19T09:21:00.999Z</time></trkpt><trkpt lat="43.47873908978115" lon="10.598354023023155"><ele>522.0</ele><time>2026-04-19T09:21:01.999Z</time></trkpt><trkpt lat="43.478764426306725" lon="10.598457095882154"><ele>521.0</ele><time>2026-04-19T09:21:02.999Z</time></trkpt><trkpt lat="43.47879707077929" lon="10.598565598274078"><ele>523.1666666666666</ele><time>2026-04-19T09:21:03.999Z</time></trkpt><trkpt lat="43.478817661412485" lon="10.59867156411997"><ele>525.3333333333333</ele><time>2026-04-19T09:21:04.999Z</time></trkpt><trkpt lat="43.478826705216406" lon="10.598780754463874"><ele>527.5</ele><time>2026-04-19T09:21:05.999Z</time></trkpt><trkpt lat="43.47883058921609" lon="10.59888685774645"><ele>529.6666666666666</ele><time>2026-04-19T09:21:06.999Z</time></trkpt><trkpt lat="43.47883560607355" lon="10.598992837691114"><ele>531.8333333333334</ele><time>2026-04-19T09:21:07.999Z</time></trkpt><trkpt lat="43.478836992783876" lon="10.599087603251048"><ele>534.0</ele><time>2026-04-19T09:21:08.999Z</time></trkpt><trkpt lat="43.47885216086623" lon="10.599265633420227"><ele>534.0</ele><time>2026-04-19T09:21:10.999Z</time></trkpt><trkpt lat="43.47885325831348" lon="10.599355925677264"><ele>534.0</ele><time>2026-04-19T09:21:11.999Z</time></trkpt><trkpt lat="43.47885279350729" lon="10.599445940472682"><ele>534.0</ele><time>2026-04-19T09:21:12.999Z</time></trkpt><trkpt lat="43.47885113068848" lon="10.59954187231653"><ele>534.0</ele><time>2026-04-19T09:21:13.999Z</time></trkpt><trkpt lat="43.47883928180987" lon="10.599627228814688"><ele>534.0</ele><time>2026-04-19T09:21:14.999Z</time></trkpt><trkpt lat="43.47881134077304" lon="10.59975009366721"><ele>534.0</ele><time>2026-04-19T09:21:16.999Z</time></trkpt><trkpt lat="43.47879249970287" lon="10.599882749506815"><ele>535.4</ele><time>2026-04-19T09:21:18.999Z</time></trkpt><trkpt lat="43.47876993083345" lon="10.60006214053171"><ele>536.8</ele><time>2026-04-19T09:21:21Z</time></trkpt><trkpt lat="43.478755444428245" lon="10.600168593306568"><ele>538.2</ele><time>2026-04-19T09:21:22Z</time></trkpt><trkpt lat="43.478747009596226" lon="10.600264689201117"><ele>539.6</ele><time>2026-04-19T09:21:23Z</time></trkpt><trkpt lat="43.478714216265075" lon="10.600416164595687"><ele>541.0</ele><time>2026-04-19T09:21:25Z</time></trkpt><trkpt lat="43.47868067651397" lon="10.600538390383068"><ele>541.0</ele><time>2026-04-19T09:21:27Z</time></trkpt><trkpt lat="43.4786876068813" lon="10.600648869639917"><ele>541.0</ele><time>2026-04-19T09:21:28Z</time></trkpt><trkpt lat="43.478714529000236" lon="10.600772457485307"><ele>541.0</ele><time>2026-04-19T09:21:30Z</time></trkpt><trkpt lat="43.478723144079595" lon="10.600897814677548"><ele>541.0</ele><time>2026-04-19T09:21:31Z</time></trkpt><trkpt lat="43.47872023786376" lon="10.600994974657388"><ele>541.0</ele><time>2026-04-19T09:21:32Z</time></trkpt><trkpt lat="43.478725584771425" lon="10.601086696659053"><ele>541.0</ele><time>2026-04-19T09:21:33Z</time></trkpt><trkpt lat="43.47873772857514" lon="10.601260186839236"><ele>541.3333333333334</ele><time>2026-04-19T09:21:35Z</time></trkpt><trkpt lat="43.478742621297286" lon="10.601351604396193"><ele>541.6666666666667</ele><time>2026-04-19T09:21:36Z</time></trkpt><trkpt lat="43.47875890121077" lon="10.601515191051519"><ele>542.0</ele><time>2026-04-19T09:21:38Z</time></trkpt><trkpt lat="43.47876302843451" lon="10.601641320157428"><ele>542.3333333333334</ele><time>2026-04-19T09:21:40Z</time></trkpt><trkpt lat="43.478809856582274" lon="10.601723065725691"><ele>542.6666666666666</ele><time>2026-04-19T09:21:50Z</time></trkpt><trkpt lat="43.47888083879422" lon="10.601734765083666"><ele>543.0</ele><time>2026-04-19T09:21:52Z</time></trkpt><trkpt lat="43.47896174738248" lon="10.601729235551183"><ele>543.0</ele><time>2026-04-19T09:21:53Z</time></trkpt><trkpt lat="43.479045331300284" lon="10.60176141679163"><ele>543.0</ele><time>2026-04-19T09:21:54Z</time></trkpt><trkpt lat="43.47912304464515" lon="10.601777523258475"><ele>543.0</ele><time>2026-04-19T09:21:55Z</time></trkpt><trkpt lat="43.4791903979718" lon="10.601770287401235"><ele>543.0</ele><time>2026-04-19T09:21:56Z</time></trkpt><trkpt lat="43.479260337081406" lon="10.60174149461506"><ele>543.0</ele><time>2026-04-19T09:21:57Z</time></trkpt><trkpt lat="43.479324709578684" lon="10.601686550277023"><ele>543.0</ele><time>2026-04-19T09:21:58Z</time></trkpt><trkpt lat="43.47940458777583" lon="10.601596593242334"><ele>543.0</ele><time>2026-04-19T09:21:59Z</time></trkpt><trkpt lat="43.47947227441154" lon="10.601489702007758"><ele>543.0</ele><time>2026-04-19T09:22:00Z</time></trkpt><trkpt lat="43.47954414368725" lon="10.601374360294253"><ele>543.0</ele><time>2026-04-19T09:22:01Z</time></trkpt><trkpt lat="43.47961315056226" lon="10.601280951670205"><ele>543.0</ele><time>2026-04-19T09:22:02Z</time></trkpt><trkpt lat="43.479687163589716" lon="10.601202429230458"><ele>543.0</ele><time>2026-04-19T09:22:03Z</time></trkpt><trkpt lat="43.47976017092649" lon="10.601144384947197"><ele>541.1999999999999</ele><time>2026-04-19T09:22:04Z</time></trkpt><trkpt lat="43.479826361770165" lon="10.60110502751118"><ele>539.4</ele><time>2026-04-19T09:22:05Z</time></trkpt><trkpt lat="43.47991706856578" lon="10.601000885076337"><ele>537.5999999999999</ele><time>2026-04-19T09:22:07Z</time></trkpt><trkpt lat="43.47996790833129" lon="10.600861077253995"><ele>535.8</ele><time>2026-04-19T09:22:09Z</time></trkpt><trkpt lat="43.47998756956955" lon="10.60067731794794"><ele>534.0</ele><time>2026-04-19T09:22:11Z</time></trkpt><trkpt lat="43.47999068653735" lon="10.6005770345705"><ele>534.0</ele><time>2026-04-19T09:22:12Z</time></trkpt><trkpt lat="43.479994986371224" lon="10.600468672257279"><ele>534.0</ele><time>2026-04-19T09:22:13Z</time></trkpt><trkpt lat="43.479994279077175" lon="10.600353878561998"><ele>534.0</ele><time>2026-04-19T09:22:14Z</time></trkpt><trkpt lat="43.48001207317484" lon="10.600245760878941"><ele>534.0</ele><time>2026-04-19T09:22:15Z</time></trkpt><trkpt lat="43.480040015032536" lon="10.600157195584996"><ele>534.0</ele><time>2026-04-19T09:22:16Z</time></trkpt><trkpt lat="43.48008196084512" lon="10.600068123221275"><ele>534.0</ele><time>2026-04-19T09:22:17Z</time></trkpt><trkpt lat="43.48013570785192" lon="10.59997964299976"><ele>533.4285714285714</ele><time>2026-04-19T09:22:18Z</time></trkpt><trkpt lat="43.4801961971951" lon="10.599902584386477"><ele>532.8571428571429</ele><time>2026-04-19T09:22:19Z</time></trkpt><trkpt lat="43.48025250044884" lon="10.599833541618967"><ele>532.2857142857142</ele><time>2026-04-19T09:22:20Z</time></trkpt><trkpt lat="43.480314014152384" lon="10.59977532057446"><ele>531.7142857142858</ele><time>2026-04-19T09:22:21Z</time></trkpt><trkpt lat="43.48038005400878" lon="10.59972674723901"><ele>531.1428571428571</ele><time>2026-04-19T09:22:22Z</time></trkpt><trkpt lat="43.48044390156486" lon="10.599686683339288"><ele>530.5714285714286</ele><time>2026-04-19T09:22:23Z</time></trkpt><trkpt lat="43.48051100744776" lon="10.599653390459334"><ele>530.0</ele><time>2026-04-19T09:22:24Z</time></trkpt><trkpt lat="43.4805803478377" lon="10.599625862522279"><ele>529.3333333333333</ele><time>2026-04-19T09:22:25Z</time></trkpt><trkpt lat="43.48065240709328" lon="10.599601076603275"><ele>528.6666666666666</ele><time>2026-04-19T09:22:26Z</time></trkpt><trkpt lat="43.48072623697659" lon="10.599575334609344"><ele>528.0</ele><time>2026-04-19T09:22:27Z</time></trkpt><trkpt lat="43.48080142961782" lon="10.599546678657905"><ele>527.3333333333334</ele><time>2026-04-19T09:22:28Z</time></trkpt><trkpt lat="43.48087336066533" lon="10.599527172593879"><ele>526.6666666666667</ele><time>2026-04-19T09:22:29Z</time></trkpt><trkpt lat="43.4809434829092" lon="10.59951216184812"><ele>526.0</ele><time>2026-04-19T09:22:30Z</time></trkpt><trkpt lat="43.48106320998312" lon="10.59946779423239"><ele>525.5714285714286</ele><time>2026-04-19T09:22:32Z</time></trkpt><trkpt lat="43.481124899784945" lon="10.599444713395235"><ele>525.1428571428571</ele><time>2026-04-19T09:22:33Z</time></trkpt><trkpt lat="43.48118971110908" lon="10.599421691386693"><ele>524.7142857142857</ele><time>2026-04-19T09:22:34Z</time></trkpt><trkpt lat="43.48125774599722" lon="10.599399956012517"><ele>524.2857142857142</ele><time>2026-04-19T09:22:35Z</time></trkpt><trkpt lat="43.481325033969455" lon="10.59938165876518"><ele>523.8571428571429</ele><time>2026-04-19T09:22:36Z</time></trkpt><trkpt lat="43.481391384086834" lon="10.599355266270504"><ele>523.4285714285713</ele><time>2026-04-19T09:22:37Z</time></trkpt><trkpt lat="43.48145759740954" lon="10.59934134425228"><ele>523.0</ele><time>2026-04-19T09:22:38Z</time></trkpt><trkpt lat="43.48152030028998" lon="10.599323623746312"><ele>521.1666666666667</ele><time>2026-04-19T09:22:39Z</time></trkpt><trkpt lat="43.4815852026914" lon="10.599328474033245"><ele>519.3333333333334</ele><time>2026-04-19T09:22:40Z</time></trkpt><trkpt lat="43.48166051958615" lon="10.599332715093846"><ele>517.5</ele><time>2026-04-19T09:22:41Z</time></trkpt><trkpt lat="43.48173696134618" lon="10.599330182175493"><ele>515.6666666666666</ele><time>2026-04-19T09:22:42Z</time></trkpt><trkpt lat="43.4818174869862" lon="10.59933037728649"><ele>513.8333333333333</ele><time>2026-04-19T09:22:43Z</time></trkpt><trkpt lat="43.481894560223864" lon="10.599326839215925"><ele>512.0</ele><time>2026-04-19T09:22:44Z</time></trkpt><trkpt lat="43.48197547352191" lon="10.599323705165347"><ele>512.0</ele><time>2026-04-19T09:22:45Z</time></trkpt><trkpt lat="43.48205231041337" lon="10.599319685549734"><ele>511.99999999999994</ele><time>2026-04-19T09:22:46Z</time></trkpt><trkpt lat="43.482127284362434" lon="10.599316009861699"><ele>512.0</ele><time>2026-04-19T09:22:47Z</time></trkpt><trkpt lat="43.48219141704573" lon="10.599316454688092"><ele>512.0</ele><time>2026-04-19T09:22:48Z</time></trkpt><trkpt lat="43.48227053925662" lon="10.599332490244834"><ele>511.99999999999994</ele><time>2026-04-19T09:22:49Z</time></trkpt><trkpt lat="43.48234566530437" lon="10.599354591968877"><ele>512.0</ele><time>2026-04-19T09:22:50Z</time></trkpt><trkpt lat="43.482418035794105" lon="10.599387595522437"><ele>512.0</ele><time>2026-04-19T09:22:51Z</time></trkpt><trkpt lat="43.482498334764884" lon="10.599433947076745"><ele>509.0</ele><time>2026-04-19T09:22:52Z</time></trkpt><trkpt lat="43.482587056578254" lon="10.599489508157248"><ele>506.00000000000006</ele><time>2026-04-19T09:22:53Z</time></trkpt><trkpt lat="43.48268164800366" lon="10.599545122627424"><ele>503.00000000000006</ele><time>2026-04-19T09:22:54Z</time></trkpt><trkpt lat="43.48277876115485" lon="10.599607301887287"><ele>500.0</ele><time>2026-04-19T09:22:55Z</time></trkpt><trkpt lat="43.48286892546905" lon="10.599665895857356"><ele>497.0</ele><time>2026-04-19T09:22:56Z</time></trkpt><trkpt lat="43.4829597654593" lon="10.599714871643547"><ele>496.99999999999994</ele><time>2026-04-19T09:22:57Z</time></trkpt><trkpt lat="43.483049733365725" lon="10.599761873055881"><ele>497.0</ele><time>2026-04-19T09:22:58Z</time></trkpt><trkpt lat="43.48313069957512" lon="10.599823713641706"><ele>497.0</ele><time>2026-04-19T09:22:59Z</time></trkpt><trkpt lat="43.48321444772352" lon="10.599871466226011"><ele>497.0</ele><time>2026-04-19T09:23:00Z</time></trkpt><trkpt lat="43.48328758291627" lon="10.599910573272064"><ele>496.99999999999994</ele><time>2026-04-19T09:23:01Z</time></trkpt><trkpt lat="43.483349985690964" lon="10.599943593699814"><ele>497.0</ele><time>2026-04-19T09:23:02Z</time></trkpt><trkpt lat="43.48341724575625" lon="10.599974327294674"><ele>497.0</ele><time>2026-04-19T09:23:03Z</time></trkpt><trkpt lat="43.48349488063161" lon="10.599996819153844"><ele>497.00000000000006</ele><time>2026-04-19T09:23:04Z</time></trkpt><trkpt lat="43.48358230744586" lon="10.600029163131955"><ele>497.00000000000006</ele><time>2026-04-19T09:23:05Z</time></trkpt><trkpt lat="43.48367233579294" lon="10.600074769991167"><ele>497.0</ele><time>2026-04-19T09:23:06Z</time></trkpt><trkpt lat="43.48376748045702" lon="10.600105937171817"><ele>497.0</ele><time>2026-04-19T09:23:07Z</time></trkpt><trkpt lat="43.48388169407037" lon="10.60011484545267"><ele>498.5</ele><time>2026-04-19T09:23:08Z</time></trkpt><trkpt lat="43.48401884555802" lon="10.600110105799587"><ele>500.0</ele><time>2026-04-19T09:23:09Z</time></trkpt><trkpt lat="43.48413930402755" lon="10.600089377565602"><ele>501.5</ele><time>2026-04-19T09:23:10Z</time></trkpt><trkpt lat="43.484264653112476" lon="10.600070797804012"><ele>503.0</ele><time>2026-04-19T09:23:11Z</time></trkpt><trkpt lat="43.48438713341635" lon="10.600049241947964"><ele>503.0</ele><time>2026-04-19T09:23:12Z</time></trkpt><trkpt lat="43.48449414671596" lon="10.600032554490845"><ele>502.99999999999994</ele><time>2026-04-19T09:23:13Z</time></trkpt><trkpt lat="43.484595731065525" lon="10.600030125060023"><ele>502.99999999999994</ele><time>2026-04-19T09:23:14Z</time></trkpt><trkpt lat="43.48469880505405" lon="10.600022343594617"><ele>503.0</ele><time>2026-04-19T09:23:15Z</time></trkpt><trkpt lat="43.48480291951926" lon="10.600014594871995"><ele>503.0</ele><time>2026-04-19T09:23:16Z</time></trkpt><trkpt lat="43.48490905854031" lon="10.600015057545967"><ele>503.3333333333333</ele><time>2026-04-19T09:23:16.999Z</time></trkpt><trkpt lat="43.48500919433195" lon="10.59999486414289"><ele>503.66666666666663</ele><time>2026-04-19T09:23:17.999Z</time></trkpt><trkpt lat="43.48509297647871" lon="10.599974372194403"><ele>504.0</ele><time>2026-04-19T09:23:18.999Z</time></trkpt><trkpt lat="43.48516854494685" lon="10.599944352953324"><ele>504.33333333333337</ele><time>2026-04-19T09:23:19.999Z</time></trkpt><trkpt lat="43.48522993688432" lon="10.599917192254352"><ele>504.6666666666667</ele><time>2026-04-19T09:23:20.999Z</time></trkpt><trkpt lat="43.48529504937663" lon="10.599883654008888"><ele>505.0</ele><time>2026-04-19T09:23:21.999Z</time></trkpt><trkpt lat="43.485354093311635" lon="10.599851428129922"><ele>505.33333333333337</ele><time>2026-04-19T09:23:22.999Z</time></trkpt><trkpt lat="43.48544987221677" lon="10.599801041812404"><ele>505.6666666666667</ele><time>2026-04-19T09:23:24.999Z</time></trkpt><trkpt lat="43.48551016650604" lon="10.599761339223326"><ele>506.0</ele><time>2026-04-19T09:23:25.999Z</time></trkpt><trkpt lat="43.485582742054326" lon="10.599711678623907"><ele>506.33333333333337</ele><time>2026-04-19T09:23:26.999Z</time></trkpt><trkpt lat="43.48565283419872" lon="10.599680739622375"><ele>506.6666666666667</ele><time>2026-04-19T09:23:27.999Z</time></trkpt><trkpt lat="43.48571601779045" lon="10.599652263945101"><ele>507.0</ele><time>2026-04-19T09:23:28.999Z</time></trkpt><trkpt lat="43.48578459164436" lon="10.59963297110986"><ele>507.0</ele><time>2026-04-19T09:23:29.999Z</time></trkpt><trkpt lat="43.485859244672135" lon="10.599616092219762"><ele>507.0</ele><time>2026-04-19T09:23:30.999Z</time></trkpt><trkpt lat="43.485936541811625" lon="10.599609318030092"><ele>507.0</ele><time>2026-04-19T09:23:31.999Z</time></trkpt><trkpt lat="43.4860193013141" lon="10.599609709136928"><ele>507.0</ele><time>2026-04-19T09:23:33Z</time></trkpt><trkpt lat="43.4861026772878" lon="10.59960474521268"><ele>507.0</ele><time>2026-04-19T09:23:34Z</time></trkpt><trkpt lat="43.48618647936308" lon="10.59962401471262"><ele>507.0</ele><time>2026-04-19T09:23:35Z</time></trkpt><trkpt lat="43.486276104993486" lon="10.599651190445535"><ele>506.1666666666667</ele><time>2026-04-19T09:23:36Z</time></trkpt><trkpt lat="43.486364484144524" lon="10.59967448369615"><ele>505.33333333333337</ele><time>2026-04-19T09:23:37Z</time></trkpt><trkpt lat="43.486447018635225" lon="10.599691185948355"><ele>504.5</ele><time>2026-04-19T09:23:38Z</time></trkpt><trkpt lat="43.48652472496889" lon="10.59972521278475"><ele>503.6666666666667</ele><time>2026-04-19T09:23:39Z</time></trkpt><trkpt lat="43.486595470861495" lon="10.599763029202355"><ele>502.83333333333337</ele><time>2026-04-19T09:23:40Z</time></trkpt><trkpt lat="43.48667297350644" lon="10.599774854838383"><ele>502.0</ele><time>2026-04-19T09:23:41Z</time></trkpt><trkpt lat="43.48674165474108" lon="10.599763484764246"><ele>502.00000000000006</ele><time>2026-04-19T09:23:42Z</time></trkpt><trkpt lat="43.486823614450465" lon="10.599742338650604"><ele>502.0</ele><time>2026-04-19T09:23:43Z</time></trkpt><trkpt lat="43.486904474129894" lon="10.599724697897582"><ele>502.0</ele><time>2026-04-19T09:23:44Z</time></trkpt><trkpt lat="43.486987137609304" lon="10.599683064603022"><ele>502.0</ele><time>2026-04-19T09:23:45Z</time></trkpt><trkpt lat="43.48706235133741" lon="10.599629752048342"><ele>502.00000000000006</ele><time>2026-04-19T09:23:46Z</time></trkpt><trkpt lat="43.48713037110805" lon="10.599560133377471"><ele>502.0</ele><time>2026-04-19T09:23:47Z</time></trkpt><trkpt lat="43.487196230719455" lon="10.59949176174004"><ele>500.40000000000003</ele><time>2026-04-19T09:23:48Z</time></trkpt><trkpt lat="43.487260308156486" lon="10.599402583017978"><ele>498.80000000000007</ele><time>2026-04-19T09:23:49Z</time></trkpt><trkpt lat="43.487321787216956" lon="10.599309010567861"><ele>497.2</ele><time>2026-04-19T09:23:50Z</time></trkpt><trkpt lat="43.487386557010154" lon="10.599205751574948"><ele>495.6</ele><time>2026-04-19T09:23:51Z</time></trkpt><trkpt lat="43.48746702629577" lon="10.599090260985909"><ele>494.0</ele><time>2026-04-19T09:23:52Z</time></trkpt><trkpt lat="43.48755650856933" lon="10.5989604860475"><ele>494.0</ele><time>2026-04-19T09:23:53Z</time></trkpt><trkpt lat="43.48763026813306" lon="10.598846941936984"><ele>494.0</ele><time>2026-04-19T09:23:54Z</time></trkpt><trkpt lat="43.487697035633246" lon="10.59875221843311"><ele>494.0</ele><time>2026-04-19T09:23:55Z</time></trkpt><trkpt lat="43.48774719850948" lon="10.598640262015703"><ele>494.0</ele><time>2026-04-19T09:23:56Z</time></trkpt><trkpt lat="43.48778811341304" lon="10.598520213736043"><ele>494.0</ele><time>2026-04-19T09:23:57Z</time></trkpt><trkpt lat="43.48782119706678" lon="10.598404470891996"><ele>493.79999999999995</ele><time>2026-04-19T09:23:58Z</time></trkpt><trkpt lat="43.48785280472491" lon="10.598293004743269"><ele>493.59999999999997</ele><time>2026-04-19T09:23:59Z</time></trkpt><trkpt lat="43.487892600534266" lon="10.598183458705913"><ele>493.4</ele><time>2026-04-19T09:24:00Z</time></trkpt><trkpt lat="43.48794201753884" lon="10.598071903455192"><ele>493.2</ele><time>2026-04-19T09:24:01Z</time></trkpt><trkpt lat="43.48799854554365" lon="10.597957767424276"><ele>493.0</ele><time>2026-04-19T09:24:02Z</time></trkpt><trkpt lat="43.488059257557296" lon="10.597865641418206"><ele>493.33333333333337</ele><time>2026-04-19T09:24:03Z</time></trkpt><trkpt lat="43.48811684257177" lon="10.597785510032164"><ele>493.6666666666667</ele><time>2026-04-19T09:24:04Z</time></trkpt><trkpt lat="43.48817303361271" lon="10.597724266739336"><ele>494.0</ele><time>2026-04-19T09:24:05Z</time></trkpt><trkpt lat="43.48823464024081" lon="10.597642484256482"><ele>494.33333333333337</ele><time>2026-04-19T09:24:06Z</time></trkpt><trkpt lat="43.48831810758025" lon="10.597532778474722"><ele>494.6666666666667</ele><time>2026-04-19T09:24:07Z</time></trkpt><trkpt lat="43.48838583563076" lon="10.597445123055964"><ele>495.0</ele><time>2026-04-19T09:24:08Z</time></trkpt><trkpt lat="43.48843589726864" lon="10.597363906334515"><ele>495.0</ele><time>2026-04-19T09:24:09Z</time></trkpt><trkpt lat="43.48847139997861" lon="10.597276375538424"><ele>495.0</ele><time>2026-04-19T09:24:10Z</time></trkpt><trkpt lat="43.48850278319292" lon="10.597190398159945"><ele>495.0</ele><time>2026-04-19T09:24:11Z</time></trkpt><trkpt lat="43.48852876075804" lon="10.597099214559039"><ele>495.0</ele><time>2026-04-19T09:24:12Z</time></trkpt><trkpt lat="43.4885892998559" lon="10.596947160014967"><ele>495.0</ele><time>2026-04-19T09:24:14Z</time></trkpt><trkpt lat="43.4886262702664" lon="10.59685518973756"><ele>495.0</ele><time>2026-04-19T09:24:15Z</time></trkpt><trkpt lat="43.48867551556459" lon="10.596759399735102"><ele>494.5</ele><time>2026-04-19T09:24:16Z</time></trkpt><trkpt lat="43.488723349447724" lon="10.596652650058225"><ele>494.0</ele><time>2026-04-19T09:24:17Z</time></trkpt><trkpt lat="43.488766478345916" lon="10.596565792316575"><ele>493.5</ele><time>2026-04-19T09:24:18Z</time></trkpt><trkpt lat="43.48882127777484" lon="10.59648912749397"><ele>493.0</ele><time>2026-04-19T09:24:19Z</time></trkpt><trkpt lat="43.48888714466583" lon="10.596426281611494"><ele>492.5</ele><time>2026-04-19T09:24:20Z</time></trkpt><trkpt lat="43.488963992489694" lon="10.59637242085466"><ele>492.0</ele><time>2026-04-19T09:24:21Z</time></trkpt><trkpt lat="43.48903853531025" lon="10.596338629494982"><ele>492.0</ele><time>2026-04-19T09:24:22Z</time></trkpt><trkpt lat="43.489106856171006" lon="10.596341428715318"><ele>492.00000000000006</ele><time>2026-04-19T09:24:23Z</time></trkpt><trkpt lat="43.489186189415385" lon="10.596370835295883"><ele>492.00000000000006</ele><time>2026-04-19T09:24:24Z</time></trkpt><trkpt lat="43.489283901863296" lon="10.596423368673683"><ele>492.0</ele><time>2026-04-19T09:24:25Z</time></trkpt><trkpt lat="43.48941007864885" lon="10.596488397637408"><ele>492.0</ele><time>2026-04-19T09:24:26Z</time></trkpt><trkpt lat="43.48951069908615" lon="10.596529356111974"><ele>492.0</ele><time>2026-04-19T09:24:27Z</time></trkpt><trkpt lat="43.489617493112654" lon="10.596547541718095"><ele>492.00000000000006</ele><time>2026-04-19T09:24:28Z</time></trkpt><trkpt lat="43.48972269608304" lon="10.59655702036987"><ele>492.00000000000006</ele><time>2026-04-19T09:24:29Z</time></trkpt><trkpt lat="43.489826265558605" lon="10.596569011563448"><ele>492.0</ele><time>2026-04-19T09:24:30Z</time></trkpt><trkpt lat="43.4899206914647" lon="10.596568381911181"><ele>492.0</ele><time>2026-04-19T09:24:31Z</time></trkpt><trkpt lat="43.48999936589818" lon="10.596551269339482"><ele>492.0</ele><time>2026-04-19T09:24:32Z</time></trkpt><trkpt lat="43.49008205236135" lon="10.596501298902055"><ele>492.00000000000006</ele><time>2026-04-19T09:24:33Z</time></trkpt><trkpt lat="43.490188781362306" lon="10.59642530118707"><ele>492.00000000000006</ele><time>2026-04-19T09:24:34Z</time></trkpt><trkpt lat="43.49029153363691" lon="10.596354990703789"><ele>492.0</ele><time>2026-04-19T09:24:35Z</time></trkpt><trkpt lat="43.490376872699144" lon="10.596311709049807"><ele>492.0</ele><time>2026-04-19T09:24:36Z</time></trkpt><trkpt lat="43.490453365409245" lon="10.59629277668623"><ele>491.6666666666667</ele><time>2026-04-19T09:24:37Z</time></trkpt><trkpt lat="43.490530819533575" lon="10.596300242243096"><ele>491.33333333333337</ele><time>2026-04-19T09:24:38Z</time></trkpt><trkpt lat="43.490600136236715" lon="10.596317871969852"><ele>491.0</ele><time>2026-04-19T09:24:39Z</time></trkpt><trkpt lat="43.49067235152789" lon="10.596330846986833"><ele>490.6666666666667</ele><time>2026-04-19T09:24:40Z</time></trkpt><trkpt lat="43.49075044352577" lon="10.596342220887388"><ele>490.33333333333337</ele><time>2026-04-19T09:24:41Z</time></trkpt><trkpt lat="43.49084315624382" lon="10.596347998564681"><ele>490.0</ele><time>2026-04-19T09:24:42Z</time></trkpt><trkpt lat="43.490944748626546" lon="10.59635612569226"><ele>490.0</ele><time>2026-04-19T09:24:43Z</time></trkpt><trkpt lat="43.49104317479814" lon="10.596354499417934"><ele>490.0</ele><time>2026-04-19T09:24:44Z</time></trkpt><trkpt lat="43.491138932832854" lon="10.5963495490688"><ele>490.0</ele><time>2026-04-19T09:24:45Z</time></trkpt><trkpt lat="43.49123401524559" lon="10.596347288785001"><ele>490.0</ele><time>2026-04-19T09:24:46Z</time></trkpt><trkpt lat="43.491323868483015" lon="10.596372309255251"><ele>490.0</ele><time>2026-04-19T09:24:47Z</time></trkpt><trkpt lat="43.49141352006666" lon="10.59641967785006"><ele>489.2</ele><time>2026-04-19T09:24:48Z</time></trkpt><trkpt lat="43.491500289294805" lon="10.596478956585921"><ele>488.4</ele><time>2026-04-19T09:24:49Z</time></trkpt><trkpt lat="43.49158111114376" lon="10.59654053552336"><ele>487.6</ele><time>2026-04-19T09:24:50Z</time></trkpt><trkpt lat="43.4916588801053" lon="10.596598242814078"><ele>486.8</ele><time>2026-04-19T09:24:51Z</time></trkpt><trkpt lat="43.49172267822773" lon="10.596643779918976"><ele>486.0</ele><time>2026-04-19T09:24:52Z</time></trkpt><trkpt lat="43.49180965523243" lon="10.596725277937031"><ele>486.0</ele><time>2026-04-19T09:24:54Z</time></trkpt><trkpt lat="43.491859071608374" lon="10.596817523693694"><ele>486.0</ele><time>2026-04-19T09:24:56Z</time></trkpt><trkpt lat="43.49188274179801" lon="10.596957864775362"><ele>486.0</ele><time>2026-04-19T09:24:58Z</time></trkpt><trkpt lat="43.49188675724806" lon="10.597063667081585"><ele>486.0</ele><time>2026-04-19T09:24:59Z</time></trkpt><trkpt lat="43.49189969416211" lon="10.59717774853064"><ele>486.0</ele><time>2026-04-19T09:25:00Z</time></trkpt><trkpt lat="43.49193103877238" lon="10.597310350172284"><ele>485.25</ele><time>2026-04-19T09:25:01Z</time></trkpt><trkpt lat="43.49196292257628" lon="10.597460952734547"><ele>484.5</ele><time>2026-04-19T09:25:02Z</time></trkpt><trkpt lat="43.49198324664631" lon="10.597609665243326"><ele>483.75</ele><time>2026-04-19T09:25:03Z</time></trkpt><trkpt lat="43.491995246144334" lon="10.597768476852234"><ele>483.0</ele><time>2026-04-19T09:25:04Z</time></trkpt><trkpt lat="43.49201717180479" lon="10.597938901836757"><ele>481.2</ele><time>2026-04-19T09:25:05Z</time></trkpt><trkpt lat="43.492039037116726" lon="10.598062622892995"><ele>479.4</ele><time>2026-04-19T09:25:06Z</time></trkpt><trkpt lat="43.49205822570809" lon="10.598168966763959"><ele>477.59999999999997</ele><time>2026-04-19T09:25:07Z</time></trkpt><trkpt lat="43.49204670782808" lon="10.598332675456875"><ele>475.79999999999995</ele><time>2026-04-19T09:25:09Z</time></trkpt><trkpt lat="43.492021171802335" lon="10.598476296602728"><ele>474.0</ele><time>2026-04-19T09:25:11Z</time></trkpt><trkpt lat="43.49201219477397" lon="10.598564247250534"><ele>474.0</ele><time>2026-04-19T09:25:12Z</time></trkpt><trkpt lat="43.4919956962891" lon="10.59865928995635"><ele>474.0</ele><time>2026-04-19T09:25:13Z</time></trkpt><trkpt lat="43.49197275354617" lon="10.598772552833658"><ele>474.0</ele><time>2026-04-19T09:25:14Z</time></trkpt><trkpt lat="43.49195610674913" lon="10.598877472186716"><ele>474.0</ele><time>2026-04-19T09:25:15Z</time></trkpt><trkpt lat="43.49194030197103" lon="10.598973633435131"><ele>474.0</ele><time>2026-04-19T09:25:16Z</time></trkpt><trkpt lat="43.491934072861326" lon="10.599082171957791"><ele>474.0</ele><time>2026-04-19T09:25:17Z</time></trkpt><trkpt lat="43.49194250732121" lon="10.599200224846232"><ele>473.0</ele><time>2026-04-19T09:25:18Z</time></trkpt><trkpt lat="43.49195734216903" lon="10.599313577142883"><ele>472.0</ele><time>2026-04-19T09:25:19Z</time></trkpt><trkpt lat="43.491957822846224" lon="10.59942572429484"><ele>471.0</ele><time>2026-04-19T09:25:20Z</time></trkpt><trkpt lat="43.49194939057169" lon="10.599524096001819"><ele>470.0</ele><time>2026-04-19T09:25:21Z</time></trkpt><trkpt lat="43.49194778769179" lon="10.599612046859828"><ele>469.0</ele><time>2026-04-19T09:25:22Z</time></trkpt><trkpt lat="43.49198544449884" lon="10.599768764805278"><ele>468.0</ele><time>2026-04-19T09:25:24Z</time></trkpt><trkpt lat="43.49206105818949" lon="10.599902325550849"><ele>467.79999999999995</ele><time>2026-04-19T09:25:26Z</time></trkpt><trkpt lat="43.49212770171436" lon="10.599954907762214"><ele>467.59999999999997</ele><time>2026-04-19T09:25:27Z</time></trkpt><trkpt lat="43.49219657800451" lon="10.60000254828229"><ele>467.40000000000003</ele><time>2026-04-19T09:25:28Z</time></trkpt><trkpt lat="43.49226430891149" lon="10.60003135631435"><ele>467.20000000000005</ele><time>2026-04-19T09:25:29Z</time></trkpt><trkpt lat="43.49236371065378" lon="10.60011327209275"><ele>467.0</ele><time>2026-04-19T09:25:31Z</time></trkpt><trkpt lat="43.4924275952932" lon="10.600240165192371"><ele>466.3333333333333</ele><time>2026-04-19T09:25:33Z</time></trkpt><trkpt lat="43.49245540032889" lon="10.60033785933481"><ele>465.66666666666663</ele><time>2026-04-19T09:25:35Z</time></trkpt><trkpt lat="43.492487805535895" lon="10.600433507159039"><ele>465.0</ele><time>2026-04-19T09:25:47Z</time></trkpt><trkpt lat="43.49255965978049" lon="10.60046471707618"><ele>464.33333333333337</ele><time>2026-04-19T09:25:49Z</time></trkpt><trkpt lat="43.49265516695684" lon="10.600539400768595"><ele>463.6666666666667</ele><time>2026-04-19T09:25:51Z</time></trkpt><trkpt lat="43.492733322330025" lon="10.600597758150107"><ele>463.0</ele><time>2026-04-19T09:25:53Z</time></trkpt><trkpt lat="43.49282224928649" lon="10.600608751554148"><ele>463.33333333333337</ele><time>2026-04-19T09:25:55Z</time></trkpt><trkpt lat="43.49294871213988" lon="10.600572409964533"><ele>463.6666666666667</ele><time>2026-04-19T09:25:57Z</time></trkpt><trkpt lat="43.49303195623108" lon="10.600543515118385"><ele>464.0</ele><time>2026-04-19T09:25:58Z</time></trkpt><trkpt lat="43.493108370258525" lon="10.600525700140434"><ele>464.33333333333337</ele><time>2026-04-19T09:25:59Z</time></trkpt><trkpt lat="43.493178368630936" lon="10.600513747471252"><ele>464.6666666666667</ele><time>2026-04-19T09:26:00Z</time></trkpt><trkpt lat="43.4932476072467" lon="10.600511375973992"><ele>465.0</ele><time>2026-04-19T09:26:01Z</time></trkpt><trkpt lat="43.49331593593562" lon="10.600510018053084"><ele>465.0</ele><time>2026-04-19T09:26:02Z</time></trkpt><trkpt lat="43.49338728223286" lon="10.600503978972519"><ele>465.0</ele><time>2026-04-19T09:26:03Z</time></trkpt><trkpt lat="43.493455268790704" lon="10.600514184831681"><ele>465.0</ele><time>2026-04-19T09:26:04Z</time></trkpt><trkpt lat="43.493572924441764" lon="10.600581433325488"><ele>465.0</ele><time>2026-04-19T09:26:06Z</time></trkpt><trkpt lat="43.493630939436045" lon="10.600629662822604"><ele>465.0</ele><time>2026-04-19T09:26:07Z</time></trkpt><trkpt lat="43.49369601020656" lon="10.600677366577576"><ele>465.0</ele><time>2026-04-19T09:26:08Z</time></trkpt><trkpt lat="43.49376297389666" lon="10.60072817326722"><ele>463.2857142857143</ele><time>2026-04-19T09:26:09Z</time></trkpt><trkpt lat="43.493834353082164" lon="10.600775834041679"><ele>461.57142857142856</ele><time>2026-04-19T09:26:10Z</time></trkpt><trkpt lat="43.49389918472143" lon="10.600824493672341"><ele>459.85714285714283</ele><time>2026-04-19T09:26:11Z</time></trkpt><trkpt lat="43.4939640521247" lon="10.60087321015371"><ele>458.1428571428571</ele><time>2026-04-19T09:26:12Z</time></trkpt><trkpt lat="43.49403130230067" lon="10.600926573108415"><ele>456.42857142857144</ele><time>2026-04-19T09:26:13Z</time></trkpt><trkpt lat="43.49409119214686" lon="10.60098147588783"><ele>454.71428571428567</ele><time>2026-04-19T09:26:14Z</time></trkpt><trkpt lat="43.49414198716758" lon="10.601037822071222"><ele>452.99999999999994</ele><time>2026-04-19T09:26:15Z</time></trkpt><trkpt lat="43.494195967367276" lon="10.601093428977064"><ele>453.0</ele><time>2026-04-19T09:26:16Z</time></trkpt><trkpt lat="43.4942964030683" lon="10.60119929062733"><ele>453.0</ele><time>2026-04-19T09:26:18Z</time></trkpt><trkpt lat="43.49440476127338" lon="10.601218249954906"><ele>453.0</ele><time>2026-04-19T09:26:20Z</time></trkpt><trkpt lat="43.49446396860784" lon="10.601187467220733"><ele>453.0</ele><time>2026-04-19T09:26:21Z</time></trkpt><trkpt lat="43.4945213711501" lon="10.601123078602326"><ele>453.0</ele><time>2026-04-19T09:26:22Z</time></trkpt><trkpt lat="43.4945824441825" lon="10.601060780447446"><ele>453.0</ele><time>2026-04-19T09:26:23Z</time></trkpt><trkpt lat="43.49467559997066" lon="10.600955260261896"><ele>451.71428571428567</ele><time>2026-04-19T09:26:25Z</time></trkpt><trkpt lat="43.49473582391442" lon="10.600921593597405"><ele>450.42857142857144</ele><time>2026-04-19T09:26:26Z</time></trkpt><trkpt lat="43.4947986052101" lon="10.600898068592723"><ele>449.1428571428571</ele><time>2026-04-19T09:26:27Z</time></trkpt><trkpt lat="43.49486594982364" lon="10.600892759727335"><ele>447.85714285714283</ele><time>2026-04-19T09:26:28Z</time></trkpt><trkpt lat="43.49493552523953" lon="10.60088667111516"><ele>446.57142857142856</ele><time>2026-04-19T09:26:29Z</time></trkpt><trkpt lat="43.49500945644021" lon="10.600886371326688"><ele>445.2857142857143</ele><time>2026-04-19T09:26:30Z</time></trkpt><trkpt lat="43.49508411533963" lon="10.600892934233064"><ele>444.0</ele><time>2026-04-19T09:26:31Z</time></trkpt><trkpt lat="43.49516169821963" lon="10.600916031969074"><ele>444.0</ele><time>2026-04-19T09:26:32Z</time></trkpt><trkpt lat="43.49524402389237" lon="10.600959006290164"><ele>444.0</ele><time>2026-04-19T09:26:33Z</time></trkpt><trkpt lat="43.495340935041234" lon="10.601007260628872"><ele>444.0</ele><time>2026-04-19T09:26:34Z</time></trkpt><trkpt lat="43.495447933887306" lon="10.601058115462033"><ele>444.0</ele><time>2026-04-19T09:26:35Z</time></trkpt><trkpt lat="43.49555466809404" lon="10.60110568272665"><ele>444.0</ele><time>2026-04-19T09:26:36Z</time></trkpt><trkpt lat="43.49565728479269" lon="10.601148641361332"><ele>443.4</ele><time>2026-04-19T09:26:37Z</time></trkpt><trkpt lat="43.49575788878612" lon="10.601184701817733"><ele>442.79999999999995</ele><time>2026-04-19T09:26:38Z</time></trkpt><trkpt lat="43.49585335227817" lon="10.601212850977733"><ele>442.20000000000005</ele><time>2026-04-19T09:26:39Z</time></trkpt><trkpt lat="43.49595055778184" lon="10.601236289119237"><ele>441.6</ele><time>2026-04-19T09:26:40Z</time></trkpt><trkpt lat="43.49604319774381" lon="10.601259928574791"><ele>441.0</ele><time>2026-04-19T09:26:41Z</time></trkpt><trkpt lat="43.4961339433871" lon="10.601288723347906"><ele>441.0</ele><time>2026-04-19T09:26:42Z</time></trkpt><trkpt lat="43.49621567074551" lon="10.601318042272778"><ele>441.0</ele><time>2026-04-19T09:26:43Z</time></trkpt><trkpt lat="43.49629123949445" lon="10.601348996353238"><ele>441.0</ele><time>2026-04-19T09:26:44Z</time></trkpt><trkpt lat="43.496387889823446" lon="10.601348208669762"><ele>441.0</ele><time>2026-04-19T09:26:45Z</time></trkpt><trkpt lat="43.496465922452536" lon="10.601370097352204"><ele>441.0</ele><time>2026-04-19T09:26:46Z</time></trkpt><trkpt lat="43.49658079496302" lon="10.601411880388222"><ele>439.20000000000005</ele><time>2026-04-19T09:26:48Z</time></trkpt><trkpt lat="43.496658777157144" lon="10.60148432588135"><ele>437.40000000000003</ele><time>2026-04-19T09:26:50Z</time></trkpt><trkpt lat="43.496677418610844" lon="10.601624893063143"><ele>435.6</ele><time>2026-04-19T09:26:52Z</time></trkpt><trkpt lat="43.49668163706543" lon="10.601745221051033"><ele>433.8</ele><time>2026-04-19T09:26:53Z</time></trkpt><trkpt lat="43.49669168887993" lon="10.601873637465317"><ele>432.0</ele><time>2026-04-19T09:26:54Z</time></trkpt><trkpt lat="43.49670688668812" lon="10.601980436738984"><ele>432.20000000000005</ele><time>2026-04-19T09:26:55Z</time></trkpt><trkpt lat="43.49672132295571" lon="10.60209639455797"><ele>432.40000000000003</ele><time>2026-04-19T09:26:56Z</time></trkpt><trkpt lat="43.49674697558278" lon="10.602203277219614"><ele>432.59999999999997</ele><time>2026-04-19T09:26:57Z</time></trkpt><trkpt lat="43.49679505508501" lon="10.602306216068984"><ele>432.79999999999995</ele><time>2026-04-19T09:26:58Z</time></trkpt><trkpt lat="43.496864031121504" lon="10.602420247339918"><ele>433.0</ele><time>2026-04-19T09:26:59Z</time></trkpt><trkpt lat="43.496922806291906" lon="10.602530831829702"><ele>433.00000000000006</ele><time>2026-04-19T09:27:00Z</time></trkpt><trkpt lat="43.49697107089221" lon="10.602643616826095"><ele>433.0</ele><time>2026-04-19T09:27:01Z</time></trkpt><trkpt lat="43.49702450043249" lon="10.60273442475325"><ele>433.0</ele><time>2026-04-19T09:27:02Z</time></trkpt><trkpt lat="43.49706917230284" lon="10.602820141027482"><ele>433.0</ele><time>2026-04-19T09:27:03Z</time></trkpt><trkpt lat="43.497116866641946" lon="10.602899470457713"><ele>433.00000000000006</ele><time>2026-04-19T09:27:04Z</time></trkpt><trkpt lat="43.497156087881095" lon="10.602988126020666"><ele>433.0</ele><time>2026-04-19T09:27:05Z</time></trkpt><trkpt lat="43.49717575639175" lon="10.6030888577126"><ele>430.50000000000006</ele><time>2026-04-19T09:27:06Z</time></trkpt><trkpt lat="43.49717844944761" lon="10.603194516625404"><ele>428.0</ele><time>2026-04-19T09:27:07Z</time></trkpt><trkpt lat="43.4971397876166" lon="10.603300340961532"><ele>425.5</ele><time>2026-04-19T09:27:08Z</time></trkpt><trkpt lat="43.49715309214521" lon="10.603425838777056"><ele>423.0</ele><time>2026-04-19T09:27:10Z</time></trkpt><trkpt lat="43.4972127124841" lon="10.603525763805099"><ele>420.50000000000006</ele><time>2026-04-19T09:27:11Z</time></trkpt><trkpt lat="43.497301765700676" lon="10.60356618447622"><ele>418.0</ele><time>2026-04-19T09:27:12Z</time></trkpt><trkpt lat="43.497353552964896" lon="10.603720026091775"><ele>417.33333333333337</ele><time>2026-04-19T09:27:14Z</time></trkpt><trkpt lat="43.497391333817816" lon="10.603811423178456"><ele>416.6666666666667</ele><time>2026-04-19T09:27:15Z</time></trkpt><trkpt lat="43.497440488365726" lon="10.603958361496547"><ele>416.0</ele><time>2026-04-19T09:27:16Z</time></trkpt><trkpt lat="43.49747081858287" lon="10.60407539891844"><ele>415.33333333333337</ele><time>2026-04-19T09:27:17Z</time></trkpt><trkpt lat="43.49750651307403" lon="10.604171560437905"><ele>414.6666666666667</ele><time>2026-04-19T09:27:18Z</time></trkpt><trkpt lat="43.49753505529169" lon="10.604258738784141"><ele>414.0</ele><time>2026-04-19T09:27:19Z</time></trkpt><trkpt lat="43.49762212878963" lon="10.604323375849377"><ele>414.0</ele><time>2026-04-19T09:27:21Z</time></trkpt><trkpt lat="43.49775398906347" lon="10.604320768974807"><ele>414.0</ele><time>2026-04-19T09:27:23Z</time></trkpt><trkpt lat="43.497844772284985" lon="10.604333385615178"><ele>414.0</ele><time>2026-04-19T09:27:24Z</time></trkpt><trkpt lat="43.49795509641183" lon="10.604381922620663"><ele>414.0</ele><time>2026-04-19T09:27:26Z</time></trkpt><trkpt lat="43.49802749134372" lon="10.60442360381927"><ele>414.0</ele><time>2026-04-19T09:27:27Z</time></trkpt><trkpt lat="43.49810375154971" lon="10.604486214535022"><ele>412.5</ele><time>2026-04-19T09:27:28Z</time></trkpt><trkpt lat="43.498177222261305" lon="10.604530759580479"><ele>411.0</ele><time>2026-04-19T09:27:29Z</time></trkpt><trkpt lat="43.4982460988989" lon="10.604557221271302"><ele>409.5</ele><time>2026-04-19T09:27:30Z</time></trkpt><trkpt lat="43.49832650749628" lon="10.604571450893275"><ele>408.0</ele><time>2026-04-19T09:27:31Z</time></trkpt><trkpt lat="43.498399838699086" lon="10.60460196098905"><ele>406.5</ele><time>2026-04-19T09:27:32Z</time></trkpt><trkpt lat="43.49847109062051" lon="10.604655235249695"><ele>405.0</ele><time>2026-04-19T09:27:33Z</time></trkpt><trkpt lat="43.498532259788014" lon="10.604705682005473"><ele>405.0</ele><time>2026-04-19T09:27:34Z</time></trkpt><trkpt lat="43.498588857013885" lon="10.604764497202117"><ele>405.0</ele><time>2026-04-19T09:27:35Z</time></trkpt><trkpt lat="43.49867921436205" lon="10.6048898212699"><ele>405.0</ele><time>2026-04-19T09:27:37Z</time></trkpt><trkpt lat="43.498715991572396" lon="10.604977690411355"><ele>405.0</ele><time>2026-04-19T09:27:38Z</time></trkpt><trkpt lat="43.4987379827156" lon="10.605096500986948"><ele>405.0</ele><time>2026-04-19T09:27:39Z</time></trkpt><trkpt lat="43.49875860611228" lon="10.605223078781489"><ele>401.6</ele><time>2026-04-19T09:27:40Z</time></trkpt><trkpt lat="43.49880591709478" lon="10.605354239306989"><ele>398.2</ele><time>2026-04-19T09:27:41Z</time></trkpt><trkpt lat="43.4988390043177" lon="10.605476913399105"><ele>394.79999999999995</ele><time>2026-04-19T09:27:42Z</time></trkpt><trkpt lat="43.498852270208225" lon="10.605602549341226"><ele>391.4</ele><time>2026-04-19T09:27:43Z</time></trkpt><trkpt lat="43.49887337186451" lon="10.605700184545057"><ele>388.0</ele><time>2026-04-19T09:27:44Z</time></trkpt><trkpt lat="43.4988937303455" lon="10.605813031599507"><ele>388.00000000000006</ele><time>2026-04-19T09:27:45Z</time></trkpt><trkpt lat="43.498894313405245" lon="10.605912946411554"><ele>388.0</ele><time>2026-04-19T09:27:46Z</time></trkpt><trkpt lat="43.498870606380514" lon="10.606020286477916"><ele>388.0</ele><time>2026-04-19T09:27:47Z</time></trkpt><trkpt lat="43.49888254692772" lon="10.60613395973257"><ele>388.0</ele><time>2026-04-19T09:27:48Z</time></trkpt><trkpt lat="43.49888963660038" lon="10.606244147837002"><ele>388.00000000000006</ele><time>2026-04-19T09:27:49Z</time></trkpt><trkpt lat="43.49892708795387" lon="10.606344790511127"><ele>388.0</ele><time>2026-04-19T09:27:50Z</time></trkpt><trkpt lat="43.49898374544932" lon="10.606431559939764"><ele>387.85714285714283</ele><time>2026-04-19T09:27:51Z</time></trkpt><trkpt lat="43.49903872862497" lon="10.606512163574356"><ele>387.7142857142857</ele><time>2026-04-19T09:27:52Z</time></trkpt><trkpt lat="43.49911313979384" lon="10.606588340212257"><ele>387.57142857142856</ele><time>2026-04-19T09:27:53Z</time></trkpt><trkpt lat="43.499165115284995" lon="10.606638777364969"><ele>387.42857142857144</ele><time>2026-04-19T09:27:54Z</time></trkpt><trkpt lat="43.49917291306634" lon="10.606731876525817"><ele>387.28571428571433</ele><time>2026-04-19T09:27:55Z</time></trkpt><trkpt lat="43.49918653664996" lon="10.606817118137196"><ele>387.14285714285717</ele><time>2026-04-19T09:27:56Z</time></trkpt><trkpt lat="43.499205316946174" lon="10.606910149689952"><ele>387.0</ele><time>2026-04-19T09:27:57Z</time></trkpt><trkpt lat="43.499192205629186" lon="10.607011744811322"><ele>386.3333333333333</ele><time>2026-04-19T09:27:58Z</time></trkpt><trkpt lat="43.49913157280246" lon="10.607091562145001"><ele>385.6666666666667</ele><time>2026-04-19T09:27:59Z</time></trkpt><trkpt lat="43.499111193178614" lon="10.607185730064742"><ele>385.0</ele><time>2026-04-19T09:28:00Z</time></trkpt><trkpt lat="43.49910543647715" lon="10.607290837255714"><ele>384.33333333333337</ele><time>2026-04-19T09:28:01Z</time></trkpt><trkpt lat="43.499165331954046" lon="10.607449924547188"><ele>383.6666666666667</ele><time>2026-04-19T09:28:03Z</time></trkpt><trkpt lat="43.49922813307864" lon="10.607508708665248"><ele>383.0</ele><time>2026-04-19T09:28:04Z</time></trkpt><trkpt lat="43.49930225713077" lon="10.607544797619989"><ele>383.0</ele><time>2026-04-19T09:28:05Z</time></trkpt><trkpt lat="43.49938008414202" lon="10.607598648474413"><ele>383.0</ele><time>2026-04-19T09:28:06Z</time></trkpt><trkpt lat="43.499448657175016" lon="10.607637915913001"><ele>383.0</ele><time>2026-04-19T09:28:07Z</time></trkpt><trkpt lat="43.49952838561913" lon="10.607661474191444"><ele>383.0</ele><time>2026-04-19T09:28:08Z</time></trkpt><trkpt lat="43.49958743721354" lon="10.607700216555397"><ele>383.0</ele><time>2026-04-19T09:28:09Z</time></trkpt><trkpt lat="43.499679152219294" lon="10.60778375971247"><ele>383.0</ele><time>2026-04-19T09:28:11Z</time></trkpt><trkpt lat="43.49974375228261" lon="10.607904675311849"><ele>381.0</ele><time>2026-04-19T09:28:13Z</time></trkpt><trkpt lat="43.499828599545964" lon="10.60803487151921"><ele>379.0</ele><time>2026-04-19T09:28:15Z</time></trkpt><trkpt lat="43.49988625964815" lon="10.608090596776748"><ele>377.0</ele><time>2026-04-19T09:28:16Z</time></trkpt><trkpt lat="43.49992045203996" lon="10.60817825575393"><ele>375.0</ele><time>2026-04-19T09:28:17Z</time></trkpt><trkpt lat="43.49996758715634" lon="10.60825433349072"><ele>373.0</ele><time>2026-04-19T09:28:18Z</time></trkpt><trkpt lat="43.50002881624341" lon="10.608322626968013"><ele>371.0</ele><time>2026-04-19T09:28:19Z</time></trkpt><trkpt lat="43.50008256458197" lon="10.60841495049128"><ele>371.0</ele><time>2026-04-19T09:28:20Z</time></trkpt><trkpt lat="43.5001298362815" lon="10.608507729667801"><ele>371.0</ele><time>2026-04-19T09:28:21Z</time></trkpt><trkpt lat="43.50015606347498" lon="10.608624484737836"><ele>371.0</ele><time>2026-04-19T09:28:22Z</time></trkpt><trkpt lat="43.500182821960905" lon="10.6087453173896"><ele>371.0</ele><time>2026-04-19T09:28:23Z</time></trkpt><trkpt lat="43.50021578936647" lon="10.608836152058716"><ele>371.0</ele><time>2026-04-19T09:28:24Z</time></trkpt><trkpt lat="43.50026138823122" lon="10.608928113384962"><ele>371.0</ele><time>2026-04-19T09:28:25Z</time></trkpt><trkpt lat="43.50034261640044" lon="10.608986526701743"><ele>368.6666666666667</ele><time>2026-04-19T09:28:26Z</time></trkpt><trkpt lat="43.50041649850521" lon="10.609053268876657"><ele>366.33333333333337</ele><time>2026-04-19T09:28:27Z</time></trkpt><trkpt lat="43.50048807700308" lon="10.609111260210062"><ele>364.0</ele><time>2026-04-19T09:28:28Z</time></trkpt><trkpt lat="43.5005566712383" lon="10.609158593191893"><ele>361.6666666666667</ele><time>2026-04-19T09:28:29Z</time></trkpt><trkpt lat="43.500593036668484" lon="10.609234625999429"><ele>359.3333333333333</ele><time>2026-04-19T09:28:30Z</time></trkpt><trkpt lat="43.50063204764787" lon="10.609306405116088"><ele>357.0</ele><time>2026-04-19T09:28:31Z</time></trkpt><trkpt lat="43.50063494165064" lon="10.60941174193097"><ele>359.0</ele><time>2026-04-19T09:28:32Z</time></trkpt><trkpt lat="43.50067409022238" lon="10.609506179407584"><ele>361.0</ele><time>2026-04-19T09:28:33Z</time></trkpt><trkpt lat="43.50072474884975" lon="10.609583139888315"><ele>363.0</ele><time>2026-04-19T09:28:34Z</time></trkpt><trkpt lat="43.50079444497064" lon="10.609646965995513"><ele>365.0</ele><time>2026-04-19T09:28:35Z</time></trkpt><trkpt lat="43.50088739030419" lon="10.609663095515035"><ele>367.0</ele><time>2026-04-19T09:28:36Z</time></trkpt><trkpt lat="43.50097423401338" lon="10.60964837140876"><ele>369.0</ele><time>2026-04-19T09:28:37Z</time></trkpt><trkpt lat="43.50105809456496" lon="10.60962198795655"><ele>369.0</ele><time>2026-04-19T09:28:38Z</time></trkpt><trkpt lat="43.501137011929615" lon="10.609573525086684"><ele>369.0</ele><time>2026-04-19T09:28:39Z</time></trkpt><trkpt lat="43.50119920800635" lon="10.60949250926959"><ele>369.0</ele><time>2026-04-19T09:28:40Z</time></trkpt><trkpt lat="43.50127757500317" lon="10.609469659385915"><ele>369.0</ele><time>2026-04-19T09:28:41Z</time></trkpt><trkpt lat="43.50137760820848" lon="10.609476018396588"><ele>369.0</ele><time>2026-04-19T09:28:43Z</time></trkpt><trkpt lat="43.50142982708068" lon="10.609524774152506"><ele>369.0</ele><time>2026-04-19T09:28:44Z</time></trkpt><trkpt lat="43.50148190426579" lon="10.609608316908593"><ele>366.1666666666667</ele><time>2026-04-19T09:28:45Z</time></trkpt><trkpt lat="43.501553297122044" lon="10.609686962953024"><ele>363.3333333333333</ele><time>2026-04-19T09:28:46Z</time></trkpt><trkpt lat="43.501620448951236" lon="10.609741397160567"><ele>360.5</ele><time>2026-04-19T09:28:47Z</time></trkpt><trkpt lat="43.5016923440655" lon="10.609759877668557"><ele>357.66666666666663</ele><time>2026-04-19T09:28:48Z</time></trkpt><trkpt lat="43.50176736693113" lon="10.60976186774249"><ele>354.8333333333333</ele><time>2026-04-19T09:28:49Z</time></trkpt><trkpt lat="43.50185159111975" lon="10.609703915690323"><ele>352.0</ele><time>2026-04-19T09:28:50Z</time></trkpt><trkpt lat="43.50194565247677" lon="10.609693777723228"><ele>352.0</ele><time>2026-04-19T09:28:51Z</time></trkpt><trkpt lat="43.50204779294859" lon="10.609664759606924"><ele>352.0</ele><time>2026-04-19T09:28:52Z</time></trkpt><trkpt lat="43.50213350678789" lon="10.609623700225821"><ele>352.0</ele><time>2026-04-19T09:28:53Z</time></trkpt><trkpt lat="43.5022072090223" lon="10.609561205901489"><ele>352.0</ele><time>2026-04-19T09:28:54Z</time></trkpt><trkpt lat="43.502269670948486" lon="10.609504551730431"><ele>352.0</ele><time>2026-04-19T09:28:55Z</time></trkpt><trkpt lat="43.50233961142531" lon="10.609460113534755"><ele>352.0</ele><time>2026-04-19T09:28:56Z</time></trkpt><trkpt lat="43.502418147366456" lon="10.609415542333128"><ele>351.0</ele><time>2026-04-19T09:28:57Z</time></trkpt><trkpt lat="43.50249542658733" lon="10.609382309652439"><ele>350.0</ele><time>2026-04-19T09:28:58Z</time></trkpt><trkpt lat="43.50257120642837" lon="10.609371882760326"><ele>349.0</ele><time>2026-04-19T09:28:59Z</time></trkpt><trkpt lat="43.502644232131445" lon="10.6093844051354"><ele>348.0</ele><time>2026-04-19T09:29:00Z</time></trkpt><trkpt lat="43.50276855026816" lon="10.609470940147396"><ele>347.0</ele><time>2026-04-19T09:29:02Z</time></trkpt><trkpt lat="43.502836945679576" lon="10.609543755090193"><ele>347.0</ele><time>2026-04-19T09:29:03Z</time></trkpt><trkpt lat="43.50288728861244" lon="10.609614702597497"><ele>347.0</ele><time>2026-04-19T09:29:04Z</time></trkpt><trkpt lat="43.502966820505364" lon="10.609750775906612"><ele>347.0</ele><time>2026-04-19T09:29:06Z</time></trkpt><trkpt lat="43.50297794112828" lon="10.609844383064427"><ele>347.0</ele><time>2026-04-19T09:29:07Z</time></trkpt><trkpt lat="43.502946528745" lon="10.60994215139287"><ele>347.0</ele><time>2026-04-19T09:29:08Z</time></trkpt><trkpt lat="43.50293895578133" lon="10.610042134320103"><ele>347.0</ele><time>2026-04-19T09:29:09Z</time></trkpt><trkpt lat="43.502931558207685" lon="10.610143534044974"><ele>343.0</ele><time>2026-04-19T09:29:10Z</time></trkpt><trkpt lat="43.50293230494061" lon="10.610233140332163"><ele>339.0</ele><time>2026-04-19T09:29:11Z</time></trkpt><trkpt lat="43.503001164423004" lon="10.610390326564087"><ele>335.0</ele><time>2026-04-19T09:29:13Z</time></trkpt><trkpt lat="43.50304115050129" lon="10.610477921253926"><ele>331.0</ele><time>2026-04-19T09:29:14Z</time></trkpt><trkpt lat="43.50307804102172" lon="10.610572385606199"><ele>327.0</ele><time>2026-04-19T09:29:15Z</time></trkpt><trkpt lat="43.50309492873859" lon="10.610664172564409"><ele>323.0</ele><time>2026-04-19T09:29:16Z</time></trkpt><trkpt lat="43.50313012932491" lon="10.61083134207574"><ele>323.0</ele><time>2026-04-19T09:29:18Z</time></trkpt><trkpt lat="43.50310753766418" lon="10.610923263087757"><ele>323.0</ele><time>2026-04-19T09:29:19Z</time></trkpt><trkpt lat="43.5030525171993" lon="10.610999562251166"><ele>323.0</ele><time>2026-04-19T09:29:20Z</time></trkpt><trkpt lat="43.50300162277976" lon="10.611085276504467"><ele>323.0</ele><time>2026-04-19T09:29:21Z</time></trkpt><trkpt lat="43.50293658907217" lon="10.611146253732272"><ele>323.0</ele><time>2026-04-19T09:29:22Z</time></trkpt><trkpt lat="43.502896004813536" lon="10.6112459786219"><ele>323.0</ele><time>2026-04-19T09:29:23Z</time></trkpt><trkpt lat="43.502839697756514" lon="10.611325596542002"><ele>323.79999999999995</ele><time>2026-04-19T09:29:24Z</time></trkpt><trkpt lat="43.50278782616574" lon="10.611456765431349"><ele>324.6</ele><time>2026-04-19T09:29:26Z</time></trkpt><trkpt lat="43.50279858402257" lon="10.61158057143981"><ele>325.4</ele><time>2026-04-19T09:29:28Z</time></trkpt><trkpt lat="43.502879183388394" lon="10.611667445033635"><ele>326.20000000000005</ele><time>2026-04-19T09:29:30Z</time></trkpt><trkpt lat="43.50301551477368" lon="10.611614337410506"><ele>327.0</ele><time>2026-04-19T09:29:32Z</time></trkpt><trkpt lat="43.503083429502865" lon="10.611514350869975"><ele>327.0</ele><time>2026-04-19T09:29:33Z</time></trkpt><trkpt lat="43.50314475769141" lon="10.611454739049673"><ele>327.0</ele><time>2026-04-19T09:29:34Z</time></trkpt><trkpt lat="43.50320953158457" lon="10.611449004984513"><ele>327.0</ele><time>2026-04-19T09:29:35Z</time></trkpt><trkpt lat="43.50330630337895" lon="10.611424655212172"><ele>327.0</ele><time>2026-04-19T09:29:37Z</time></trkpt><trkpt lat="43.5033952434413" lon="10.611423573659833"><ele>327.0</ele><time>2026-04-19T09:29:39Z</time></trkpt><trkpt lat="43.50352096375122" lon="10.61145759524495"><ele>327.0</ele><time>2026-04-19T09:29:41Z</time></trkpt><trkpt lat="43.50359675936525" lon="10.611484567731488"><ele>327.0</ele><time>2026-04-19T09:29:41.999Z</time></trkpt><trkpt lat="43.50367904060881" lon="10.611521291224486"><ele>327.0</ele><time>2026-04-19T09:29:42.999Z</time></trkpt><trkpt lat="43.50375008426963" lon="10.611562275278054"><ele>327.0</ele><time>2026-04-19T09:29:43.999Z</time></trkpt><trkpt lat="43.50381431879484" lon="10.611608646050625"><ele>327.0</ele><time>2026-04-19T09:29:44.999Z</time></trkpt><trkpt lat="43.50387947730265" lon="10.611664325824666"><ele>327.0</ele><time>2026-04-19T09:29:45.999Z</time></trkpt><trkpt lat="43.50395998572569" lon="10.61174535379329"><ele>328.75</ele><time>2026-04-19T09:29:46.999Z</time></trkpt><trkpt lat="43.504059743119676" lon="10.611860219832572"><ele>330.5</ele><time>2026-04-19T09:29:47.999Z</time></trkpt><trkpt lat="43.504166324675936" lon="10.611988999910162"><ele>332.25</ele><time>2026-04-19T09:29:48.999Z</time></trkpt><trkpt lat="43.50426331609513" lon="10.612104647092"><ele>334.0</ele><time>2026-04-19T09:29:49.999Z</time></trkpt><trkpt lat="43.504344318802914" lon="10.612163883916704"><ele>334.0</ele><time>2026-04-19T09:29:50.999Z</time></trkpt><trkpt lat="43.50441551220853" lon="10.612211794811504"><ele>334.0</ele><time>2026-04-19T09:29:51.999Z</time></trkpt><trkpt lat="43.50447679718494" lon="10.612244340241949"><ele>334.0</ele><time>2026-04-19T09:29:52.999Z</time></trkpt><trkpt lat="43.504580487829415" lon="10.61229457564494"><ele>334.0</ele><time>2026-04-19T09:29:54.999Z</time></trkpt><trkpt lat="43.50465756108412" lon="10.612307316511496"><ele>334.0</ele><time>2026-04-19T09:29:57Z</time></trkpt><trkpt lat="43.50473975002041" lon="10.612309048870522"><ele>334.0</ele><time>2026-04-19T09:29:59Z</time></trkpt><trkpt lat="43.50484231977147" lon="10.612308873655515"><ele>332.0</ele><time>2026-04-19T09:30:01Z</time></trkpt><trkpt lat="43.504909510410904" lon="10.612298174261662"><ele>330.0</ele><time>2026-04-19T09:30:02Z</time></trkpt><trkpt lat="43.504974429303644" lon="10.612332274683885"><ele>328.0</ele><time>2026-04-19T09:30:03Z</time></trkpt><trkpt lat="43.50504093081687" lon="10.612346113152798"><ele>326.0</ele><time>2026-04-19T09:30:04Z</time></trkpt><trkpt lat="43.50515921765332" lon="10.612363146717204"><ele>324.0</ele><time>2026-04-19T09:30:06Z</time></trkpt><trkpt lat="43.50520938278029" lon="10.612417379506834"><ele>322.0</ele><time>2026-04-19T09:30:07Z</time></trkpt><trkpt lat="43.505255789714624" lon="10.612490565177445"><ele>322.0</ele><time>2026-04-19T09:30:08Z</time></trkpt><trkpt lat="43.50528677849642" lon="10.612584810029155"><ele>322.0</ele><time>2026-04-19T09:30:09Z</time></trkpt><trkpt lat="43.50534824769801" lon="10.61265866101258"><ele>322.0</ele><time>2026-04-19T09:30:10Z</time></trkpt><trkpt lat="43.50539884860881" lon="10.612741221869166"><ele>322.0</ele><time>2026-04-19T09:30:11Z</time></trkpt><trkpt lat="43.50545390183473" lon="10.612816095947709"><ele>322.0</ele><time>2026-04-19T09:30:12Z</time></trkpt><trkpt lat="43.505506220744216" lon="10.612874059598601"><ele>322.0</ele><time>2026-04-19T09:30:13Z</time></trkpt><trkpt lat="43.50559517565067" lon="10.61297134863581"><ele>322.5</ele><time>2026-04-19T09:30:15Z</time></trkpt><trkpt lat="43.50563463424855" lon="10.61309697780733"><ele>323.0</ele><time>2026-04-19T09:30:17Z</time></trkpt><trkpt lat="43.50566699018536" lon="10.61317195173518"><ele>323.5</ele><time>2026-04-19T09:30:18Z</time></trkpt><trkpt lat="43.505691553708054" lon="10.613287670473987"><ele>324.0</ele><time>2026-04-19T09:30:19Z</time></trkpt><trkpt lat="43.505735971470685" lon="10.613424171337606"><ele>324.5</ele><time>2026-04-19T09:30:20Z</time></trkpt><trkpt lat="43.50575395129064" lon="10.613538419027442"><ele>325.0</ele><time>2026-04-19T09:30:21Z</time></trkpt><trkpt lat="43.5057812181076" lon="10.613624416408515"><ele>326.0</ele><time>2026-04-19T09:30:22Z</time></trkpt><trkpt lat="43.50580435622144" lon="10.613708380402375"><ele>327.0</ele><time>2026-04-19T09:30:23Z</time></trkpt><trkpt lat="43.505820985887404" lon="10.613857941758356"><ele>328.0</ele><time>2026-04-19T09:30:25Z</time></trkpt><trkpt lat="43.50583860519228" lon="10.613979810779101"><ele>329.0</ele><time>2026-04-19T09:30:27Z</time></trkpt><trkpt lat="43.50586307989103" lon="10.614073231431286"><ele>330.0</ele><time>2026-04-19T09:30:29Z</time></trkpt><trkpt lat="43.50587039807707" lon="10.614160622941126"><ele>331.0</ele><time>2026-04-19T09:30:30Z</time></trkpt><trkpt lat="43.50588834640679" lon="10.614297913958243"><ele>331.0</ele><time>2026-04-19T09:30:32Z</time></trkpt><trkpt lat="43.50591983175789" lon="10.614441099860397"><ele>331.0</ele><time>2026-04-19T09:30:34Z</time></trkpt><trkpt lat="43.50595308112602" lon="10.614567671457218"><ele>332.0</ele><time>2026-04-19T09:30:36Z</time></trkpt><trkpt lat="43.50599520226052" lon="10.6146795634659"><ele>332.0</ele><time>2026-04-19T09:30:38Z</time></trkpt><trkpt lat="43.506020581040154" lon="10.614788693901842"><ele>332.0</ele><time>2026-04-19T09:30:40Z</time></trkpt></trkseg></trk></gpx>